
Distance (Route):
Temperature : 0°C
Humidity : 0%
Pressure : 0hPa| Receiver | Frames | First received | Last received |
|---|---|---|---|
| 9A1FER-3 | 254 | 2026-08-31 23:52:06 | 2026-09-01 01:05:22 |
| 9A1FER-10 | 217 | 2026-08-31 23:56:33 | 2026-09-01 01:05:51 |
| PETON7-10 | 132 | 2026-09-01 00:16:29 | 2026-09-01 00:51:49 |
| OE3JTB-15 | 4 | 2026-08-31 23:52:48 | 2026-09-01 00:07:39 |
| HA6NAB-11 | 4 | 2026-09-01 00:16:48 | 2026-09-01 00:17:09 |
| Receiver | Date | Latitude | Longitude | Direction | Speed | Altitude | Climb | Temperature | Humidity | Pressure | Voltage | Killtimer | Uptime | BKT | XDATA |
|---|---|---|---|---|---|---|---|---|---|---|---|---|---|---|---|
| 9A1FER-10 | 2026-09-01 01:05:51 | 46.12425 | 15.65550 | 179° | 37km/h | 1772m | -11.0m/s | 0°C | 0% | 0hPa | 0V | 00:00:00 | 00:00:00 | 00:00:00 | |
| 9A1FER-10 | 2026-09-01 01:05:44 | 46.12488 | 15.65546 | 178° | 31km/h | 1849m | -10.7m/s | 0°C | 0% | 0hPa | 0V | 00:00:00 | 00:00:00 | 00:00:00 | |
| 9A1FER-10 | 2026-09-01 01:05:36 | 46.12549 | 15.65536 | 168° | 26km/h | 1939m | -11.2m/s | 0°C | 0% | 0hPa | 0V | 00:00:00 | 00:00:00 | 00:00:00 | |
| 9A1FER-10 | 2026-09-01 01:05:26 | 46.12614 | 15.65509 | 157° | 20km/h | 2054m | -11.8m/s | 0°C | 0% | 0hPa | 0V | 00:00:00 | 00:00:00 | 00:00:00 | |
| 9A1FER-3 | 2026-09-01 01:05:22 | 46.12635 | 15.65494 | 155° | 16km/h | 2101m | -11.5m/s | 0°C | 0% | 0hPa | 0V | 00:00:00 | 00:00:00 | 00:00:00 | |
| 9A1FER-10 | 2026-09-01 01:05:15 | 46.12661 | 15.65470 | 146° | 13km/h | 2182m | -11.4m/s | 0°C | 0% | 0hPa | 0V | 00:00:00 | 00:00:00 | 00:00:00 | |
| 9A1FER-3 | 2026-09-01 01:05:09 | 46.12677 | 15.65451 | 142° | 11km/h | 2252m | -11.6m/s | 0°C | 0% | 0hPa | 0V | 00:00:00 | 00:00:00 | 00:00:00 | |
| 9A1FER-10 | 2026-09-01 01:05:04 | 46.12686 | 15.65437 | 128° | 11km/h | 2310m | -12.0m/s | 0°C | 0% | 0hPa | 0V | 00:00:00 | 00:00:00 | 00:00:00 | |
| 9A1FER-3 | 2026-09-01 01:04:59 | 46.12692 | 15.65420 | 115° | 9km/h | 2370m | -12.2m/s | 0°C | 0% | 0hPa | 0V | 00:00:00 | 00:00:00 | 00:00:00 | |
| 9A1FER-10 | 2026-09-01 01:04:54 | 46.12696 | 15.65402 | 104° | 9km/h | 2431m | -11.7m/s | 0°C | 0% | 0hPa | 0V | 00:00:00 | 00:00:00 | 00:00:00 | |
| 9A1FER-3 | 2026-09-01 01:04:48 | 46.12697 | 15.65381 | 77° | 9km/h | 2503m | -13.0m/s | 0°C | 0% | 0hPa | 0V | 00:00:00 | 00:00:00 | 00:00:00 | |
| 9A1FER-10 | 2026-09-01 01:04:44 | 46.12695 | 15.65368 | 85° | 11km/h | 2554m | -12.5m/s | 0°C | 0% | 0hPa | 0V | 00:00:00 | 00:00:00 | 00:00:00 | |
| 9A1FER-3 | 2026-09-01 01:04:38 | 46.12692 | 15.65345 | 68° | 31km/h | 2627m | -11.8m/s | 0°C | 0% | 0hPa | 0V | 00:00:00 | 00:00:00 | 00:00:00 | |
| 9A1FER-10 | 2026-09-01 01:04:34 | 46.12685 | 15.65328 | 58° | 16km/h | 2676m | -12.4m/s | 0°C | 0% | 0hPa | 0V | 00:00:00 | 00:00:00 | 00:00:00 | |
| 9A1FER-10 | 2026-09-01 01:04:24 | 46.12663 | 15.65273 | 66° | 33km/h | 2799m | -12.5m/s | 0°C | 0% | 0hPa | 0V | 00:00:00 | 00:00:00 | 00:00:00 | |
| 9A1FER-3 | 2026-09-01 01:04:17 | 46.12637 | 15.65197 | 63° | 35km/h | 2882m | -10.6m/s | 0°C | 0% | 0hPa | 0V | 00:00:00 | 00:00:00 | 00:00:00 | |
| 9A1FER-10 | 2026-09-01 01:04:14 | 46.12625 | 15.65166 | 60° | 35km/h | 2914m | -10.4m/s | 0°C | 0% | 0hPa | 0V | 00:00:00 | 00:00:00 | 00:00:00 | |
| 9A1FER-3 | 2026-09-01 01:04:07 | 46.12590 | 15.65094 | 52° | 37km/h | 2994m | -12.3m/s | 0°C | 0% | 0hPa | 0V | 00:00:00 | 00:00:00 | 00:00:00 | |
| 9A1FER-10 | 2026-09-01 01:04:04 | 46.12573 | 15.65066 | 48° | 40km/h | 3030m | -12.2m/s | 0°C | 0% | 0hPa | 0V | 00:00:00 | 00:00:00 | 00:00:00 | |
| 9A1FER-3 | 2026-09-01 01:03:57 | 46.12531 | 15.64991 | 57° | 44km/h | 3114m | -11.5m/s | 0°C | 0% | 0hPa | 0V | 00:00:00 | 00:00:00 | 00:00:00 | |
| 9A1FER-10 | 2026-09-01 01:03:49 | 46.12488 | 15.64885 | 66° | 46km/h | 3202m | -10.5m/s | 0°C | 0% | 0hPa | 0V | 00:00:00 | 00:00:00 | 00:00:00 | |
| 9A1FER-3 | 2026-09-01 01:03:42 | 46.12459 | 15.64778 | 70° | 44km/h | 3285m | -12.2m/s | 0°C | 0% | 0hPa | 0V | 00:00:00 | 00:00:00 | 00:00:00 | |
| 9A1FER-10 | 2026-09-01 01:03:34 | 46.12429 | 15.64655 | 75° | 40km/h | 3388m | -13.5m/s | 0°C | 0% | 0hPa | 0V | 00:00:00 | 00:00:00 | 00:00:00 | |
| 9A1FER-3 | 2026-09-01 01:03:27 | 46.12410 | 15.64554 | 76° | 42km/h | 3482m | -13.0m/s | 0°C | 0% | 0hPa | 0V | 00:00:00 | 00:00:00 | 00:00:00 | |
| 9A1FER-10 | 2026-09-01 01:03:19 | 46.12392 | 15.64440 | 80° | 44km/h | 3581m | -12.1m/s | 0°C | 0% | 0hPa | 0V | 00:00:00 | 00:00:00 | 00:00:00 | |
| 9A1FER-3 | 2026-09-01 01:03:12 | 46.12384 | 15.64330 | 88° | 44km/h | 3669m | -12.3m/s | 0°C | 0% | 0hPa | 0V | 00:00:00 | 00:00:00 | 00:00:00 | |
| 9A1FER-10 | 2026-09-01 01:03:04 | 46.12380 | 15.64206 | 88° | 42km/h | 3764m | -11.7m/s | 0°C | 0% | 0hPa | 0V | 00:00:00 | 00:00:00 | 00:00:00 | |
| 9A1FER-3 | 2026-09-01 01:02:57 | 46.12378 | 15.64093 | 88° | 44km/h | 3846m | -12.0m/s | 0°C | 0% | 0hPa | 0V | 00:00:00 | 00:00:00 | 00:00:00 | |
| 9A1FER-3 | 2026-09-01 01:02:42 | 46.12378 | 15.63856 | 90° | 37km/h | 4041m | -13.2m/s | 0°C | 0% | 0hPa | 0V | 00:00:00 | 00:00:00 | 00:00:00 | |
| 9A1FER-10 | 2026-09-01 01:02:37 | 46.12378 | 15.63781 | 91° | 33km/h | 4111m | -14.6m/s | 0°C | 0% | 0hPa | 0V | 00:00:00 | 00:00:00 | 00:00:00 | |
| 9A1FER-3 | 2026-09-01 01:02:27 | 46.12376 | 15.63656 | 89° | 29km/h | 4265m | -16.4m/s | 0°C | 0% | 0hPa | 0V | 00:00:00 | 00:00:00 | 00:00:00 | |
| 9A1FER-10 | 2026-09-01 01:02:22 | 46.12375 | 15.63600 | 91° | 29km/h | 4351m | -17.9m/s | 0°C | 0% | 0hPa | 0V | 00:00:00 | 00:00:00 | 00:00:00 | |
| 9A1FER-3 | 2026-09-01 01:02:12 | 46.12376 | 15.63496 | 93° | 31km/h | 4505m | -14.2m/s | 0°C | 0% | 0hPa | 0V | 00:00:00 | 00:00:00 | 00:00:00 | |
| 9A1FER-10 | 2026-09-01 01:02:07 | 46.12376 | 15.63444 | 86° | 33km/h | 4574m | -13.3m/s | 0°C | 0% | 0hPa | 0V | 00:00:00 | 00:00:00 | 00:00:00 | |
| 9A1FER-3 | 2026-09-01 01:01:57 | 46.12374 | 15.63327 | 89° | 44km/h | 4712m | -14.3m/s | 0°C | 0% | 0hPa | 0V | 00:00:00 | 00:00:00 | 00:00:00 | |
| 9A1FER-10 | 2026-09-01 01:01:52 | 46.12372 | 15.63264 | 89° | 55km/h | 4784m | -14.7m/s | 0°C | 0% | 0hPa | 0V | 00:00:00 | 00:00:00 | 00:00:00 | |
| 9A1FER-3 | 2026-09-01 01:01:42 | 46.12377 | 15.63101 | 95° | 57km/h | 4938m | -15.1m/s | 0°C | 0% | 0hPa | 0V | 00:00:00 | 00:00:00 | 00:00:00 | |
| 9A1FER-10 | 2026-09-01 01:01:30 | 46.12396 | 15.62851 | 100° | 64km/h | 5116m | -14.8m/s | 0°C | 0% | 0hPa | 0V | 00:00:00 | 00:00:00 | 00:00:00 | |
| 9A1FER-3 | 2026-09-01 01:01:27 | 46.12403 | 15.62782 | 98° | 64km/h | 5161m | -14.9m/s | 0°C | 0% | 0hPa | 0V | 00:00:00 | 00:00:00 | 00:00:00 | |
| 9A1FER-10 | 2026-09-01 01:01:15 | 46.12431 | 15.62509 | 93° | 64km/h | 5330m | -13.6m/s | 0°C | 0% | 0hPa | 0V | 00:00:00 | 00:00:00 | 00:00:00 | |
| 9A1FER-3 | 2026-09-01 01:01:12 | 46.12430 | 15.62440 | 88° | 66km/h | 5371m | -13.8m/s | 0°C | 0% | 0hPa | 0V | 00:00:00 | 00:00:00 | 00:00:00 | |
| 9A1FER-10 | 2026-09-01 01:01:00 | 46.12435 | 15.62158 | 93° | 86km/h | 5542m | -14.3m/s | 0°C | 0% | 0hPa | 0V | 00:00:00 | 00:00:00 | 00:00:00 | |
| 9A1FER-3 | 2026-09-01 01:00:57 | 46.12437 | 15.62081 | 92° | 88km/h | 5584m | -13.7m/s | 0°C | 0% | 0hPa | 0V | 00:00:00 | 00:00:00 | 00:00:00 | |
| 9A1FER-10 | 2026-09-01 01:00:44 | 46.12436 | 15.61661 | 92° | 86km/h | 5775m | -14.8m/s | 0°C | 0% | 0hPa | 0V | 00:00:00 | 00:00:00 | 00:00:00 | |
| 9A1FER-3 | 2026-09-01 01:00:42 | 46.12437 | 15.61597 | 93° | 84km/h | 5805m | -15.2m/s | 0°C | 0% | 0hPa | 0V | 00:00:00 | 00:00:00 | 00:00:00 | |
| 9A1FER-10 | 2026-09-01 01:00:30 | 46.12454 | 15.61198 | 95° | 71km/h | 5998m | -14.8m/s | 0°C | 0% | 0hPa | 0V | 00:00:00 | 00:00:00 | 00:00:00 | |
| 9A1FER-3 | 2026-09-01 01:00:26 | 46.12458 | 15.61115 | 95° | 71km/h | 6043m | -15.6m/s | 0°C | 0% | 0hPa | 0V | 00:00:00 | 00:00:00 | 00:00:00 | |
| 9A1FER-10 | 2026-09-01 01:00:12 | 46.12483 | 15.60757 | 98° | 64km/h | 6252m | -14.6m/s | 0°C | 0% | 0hPa | 0V | 00:00:00 | 00:00:00 | 00:00:00 | |
| 9A1FER-3 | 2026-09-01 01:00:11 | 46.12485 | 15.60734 | 98° | 64km/h | 6267m | -14.8m/s | 0°C | 0% | 0hPa | 0V | 00:00:00 | 00:00:00 | 00:00:00 | |
| 9A1FER-3 | 2026-09-01 00:59:56 | 46.12511 | 15.60383 | 98° | 69km/h | 6482m | -14.2m/s | 0°C | 0% | 0hPa | 0V | 00:00:00 | 00:00:00 | 00:00:00 | |
| 9A1FER-10 | 2026-09-01 00:59:41 | 46.12572 | 15.60016 | 107° | 68km/h | 6693m | -13.9m/s | 0°C | 0% | 0hPa | 0V | 00:00:00 | 00:00:00 | 00:00:00 | |
| 9A1FER-3 | 2026-09-01 00:59:26 | 46.12640 | 15.59664 | 104° | 66km/h | 6906m | -14.3m/s | 0°C | 0% | 0hPa | 0V | 00:00:00 | 00:00:00 | 00:00:00 | |
| 9A1FER-3 | 2026-09-01 00:59:11 | 46.12687 | 15.59311 | 99° | 68km/h | 7128m | -15.1m/s | 0°C | 0% | 0hPa | 0V | 00:00:00 | 00:00:00 | 00:00:00 | |
| 9A1FER-10 | 2026-09-01 00:58:56 | 46.12728 | 15.58949 | 103° | 75km/h | 7347m | -14.0m/s | 0°C | 0% | 0hPa | 0V | 00:00:00 | 00:00:00 | 00:00:00 | |
| 9A1FER-3 | 2026-09-01 00:58:41 | 46.12795 | 15.58554 | 103° | 78km/h | 7552m | -14.4m/s | 0°C | 0% | 0hPa | 0V | 00:00:00 | 00:00:00 | 00:00:00 | |
| 9A1FER-10 | 2026-09-01 00:58:26 | 46.12865 | 15.58137 | 106° | 78km/h | 7782m | -15.8m/s | 0°C | 0% | 0hPa | 0V | 00:00:00 | 00:00:00 | 00:00:00 | |
| 9A1FER-3 | 2026-09-01 00:58:24 | 46.12876 | 15.58082 | 106° | 80km/h | 7814m | -15.8m/s | 0°C | 0% | 0hPa | 0V | 00:00:00 | 00:00:00 | 00:00:00 | |
| 9A1FER-10 | 2026-09-01 00:58:11 | 46.12947 | 15.57721 | 105° | 86km/h | 8026m | -16.1m/s | 0°C | 0% | 0hPa | 0V | 00:00:00 | 00:00:00 | 00:00:00 | |
| 9A1FER-3 | 2026-09-01 00:58:09 | 46.12958 | 15.57661 | 107° | 86km/h | 8058m | -15.9m/s | 0°C | 0% | 0hPa | 0V | 00:00:00 | 00:00:00 | 00:00:00 | |
| 9A1FER-10 | 2026-09-01 00:57:56 | 46.13031 | 15.57265 | 105° | 89km/h | 8270m | -17.0m/s | 0°C | 0% | 0hPa | 0V | 00:00:00 | 00:00:00 | 00:00:00 | |
| 9A1FER-3 | 2026-09-01 00:57:53 | 46.13047 | 15.57174 | 105° | 93km/h | 8320m | -16.4m/s | 0°C | 0% | 0hPa | 0V | 00:00:00 | 00:00:00 | 00:00:00 | |
| 9A1FER-10 | 2026-09-01 00:57:41 | 46.13127 | 15.56784 | 107° | 97km/h | 8528m | -17.3m/s | 0°C | 0% | 0hPa | 0V | 00:00:00 | 00:00:00 | 00:00:00 | |
| 9A1FER-3 | 2026-09-01 00:57:38 | 46.13147 | 15.56684 | 105° | 97km/h | 8581m | -17.4m/s | 0°C | 0% | 0hPa | 0V | 00:00:00 | 00:00:00 | 00:00:00 | |
| 9A1FER-10 | 2026-09-01 00:57:23 | 46.13242 | 15.56171 | 105° | 100km/h | 8849m | -17.7m/s | 0°C | 0% | 0hPa | 0V | 00:00:00 | 00:00:00 | 00:00:00 | |
| 9A1FER-10 | 2026-09-01 00:57:08 | 46.13286 | 15.55624 | 94° | 99km/h | 9115m | -17.1m/s | 0°C | 0% | 0hPa | 0V | 00:00:00 | 00:00:00 | 00:00:00 | |
| 9A1FER-3 | 2026-09-01 00:57:07 | 46.13288 | 15.55588 | 93° | 99km/h | 9132m | -17.0m/s | 0°C | 0% | 0hPa | 0V | 00:00:00 | 00:00:00 | 00:00:00 | |
| 9A1FER-10 | 2026-09-01 00:56:53 | 46.13307 | 15.55084 | 93° | 93km/h | 9359m | -16.9m/s | 0°C | 0% | 0hPa | 0V | 00:00:00 | 00:00:00 | 00:00:00 | |
| 9A1FER-3 | 2026-09-01 00:56:52 | 46.13308 | 15.55049 | 93° | 97km/h | 9376m | -17.1m/s | 0°C | 0% | 0hPa | 0V | 00:00:00 | 00:00:00 | 00:00:00 | |
| 9A1FER-10 | 2026-09-01 00:56:38 | 46.13329 | 15.54576 | 97° | 80km/h | 9626m | -19.6m/s | 0°C | 0% | 0hPa | 0V | 00:00:00 | 00:00:00 | 00:00:00 | |
| 9A1FER-3 | 2026-09-01 00:56:37 | 46.13332 | 15.54544 | 96° | 84km/h | 9646m | -19.2m/s | 0°C | 0% | 0hPa | 0V | 00:00:00 | 00:00:00 | 00:00:00 | |
| 9A1FER-10 | 2026-09-01 00:56:23 | 46.13364 | 15.54139 | 95° | 73km/h | 9898m | -17.6m/s | 0°C | 0% | 0hPa | 0V | 00:00:00 | 00:00:00 | 00:00:00 | |
| 9A1FER-3 | 2026-09-01 00:56:20 | 46.13373 | 15.54056 | 104° | 73km/h | 9951m | -18.6m/s | 0°C | 0% | 0hPa | 0V | 00:00:00 | 00:00:00 | 00:00:00 | |
| 9A1FER-10 | 2026-09-01 00:56:08 | 46.13388 | 15.53747 | 91° | 73km/h | 10155m | -16.3m/s | 0°C | 0% | 0hPa | 0V | 00:00:00 | 00:00:00 | 00:00:00 | |
| 9A1FER-3 | 2026-09-01 00:56:03 | 46.13385 | 15.53614 | 86° | 78km/h | 10244m | -16.7m/s | 0°C | 0% | 0hPa | 0V | 00:00:00 | 00:00:00 | 00:00:00 | |
| 9A1FER-10 | 2026-09-01 00:55:53 | 46.13366 | 15.53344 | 85° | 82km/h | 10401m | -15.8m/s | 0°C | 0% | 0hPa | 0V | 00:00:00 | 00:00:00 | 00:00:00 | |
| 9A1FER-3 | 2026-09-01 00:55:48 | 46.13353 | 15.53194 | 84° | 84km/h | 10484m | -17.6m/s | 0°C | 0% | 0hPa | 0V | 00:00:00 | 00:00:00 | 00:00:00 | |
| 9A1FER-10 | 2026-09-01 00:55:38 | 46.13326 | 15.52897 | 84° | 93km/h | 10664m | -18.4m/s | 0°C | 0% | 0hPa | 0V | 00:00:00 | 00:00:00 | 00:00:00 | |
| 9A1FER-3 | 2026-09-01 00:55:33 | 46.13314 | 15.52739 | 84° | 102km/h | 10758m | -18.8m/s | 0°C | 0% | 0hPa | 0V | 00:00:00 | 00:00:00 | 00:00:00 | |
| 9A1FER-10 | 2026-09-01 00:55:23 | 46.13293 | 15.52384 | 87° | 113km/h | 10951m | -19.6m/s | 0°C | 0% | 0hPa | 0V | 00:00:00 | 00:00:00 | 00:00:00 | |
| 9A1FER-3 | 2026-09-01 00:55:17 | 46.13283 | 15.52150 | 87° | 124km/h | 11071m | -20.1m/s | 0°C | 0% | 0hPa | 0V | 00:00:00 | 00:00:00 | 00:00:00 | |
| 9A1FER-10 | 2026-09-01 00:55:08 | 46.13266 | 15.51759 | 88° | 135km/h | 11251m | -20.1m/s | 0°C | 0% | 0hPa | 0V | 00:00:00 | 00:00:00 | 00:00:00 | |
| 9A1FER-10 | 2026-09-01 00:54:53 | 46.13244 | 15.51015 | 88° | 159km/h | 11557m | -20.3m/s | 0°C | 0% | 0hPa | 0V | 00:00:00 | 00:00:00 | 00:00:00 | |
| 9A1FER-3 | 2026-09-01 00:54:47 | 46.13239 | 15.50675 | 89° | 164km/h | 11678m | -20.1m/s | 0°C | 0% | 0hPa | 0V | 00:00:00 | 00:00:00 | 00:00:00 | |
| 9A1FER-10 | 2026-09-01 00:54:38 | 46.13229 | 15.50139 | 89° | 164km/h | 11866m | -21.2m/s | 0°C | 0% | 0hPa | 0V | 00:00:00 | 00:00:00 | 00:00:00 | |
| 9A1FER-3 | 2026-09-01 00:54:32 | 46.13221 | 15.49777 | 88° | 162km/h | 11993m | -21.5m/s | 0°C | 0% | 0hPa | 0V | 00:00:00 | 00:00:00 | 00:00:00 | |
| 9A1FER-10 | 2026-09-01 00:54:23 | 46.13203 | 15.49240 | 85° | 162km/h | 12188m | -21.7m/s | 0°C | 0% | 0hPa | 0V | 00:00:00 | 00:00:00 | 00:00:00 | |
| 9A1FER-3 | 2026-09-01 00:54:17 | 46.13182 | 15.48892 | 84° | 164km/h | 12315m | -21.3m/s | 0°C | 0% | 0hPa | 0V | 00:00:00 | 00:00:00 | 00:00:00 | |
| 9A1FER-10 | 2026-09-01 00:54:08 | 46.13150 | 15.48353 | 87° | 162km/h | 12504m | -20.5m/s | 0°C | 0% | 0hPa | 0V | 00:00:00 | 00:00:00 | 00:00:00 | |
| 9A1FER-3 | 2026-09-01 00:54:01 | 46.13136 | 15.47939 | 87° | 162km/h | 12645m | -19.7m/s | 0°C | 0% | 0hPa | 0V | 00:00:00 | 00:00:00 | 00:00:00 | |
| 9A1FER-10 | 2026-09-01 00:53:53 | 46.13116 | 15.47466 | 88° | 159km/h | 12802m | -19.9m/s | 0°C | 0% | 0hPa | 0V | 00:00:00 | 00:00:00 | 00:00:00 | |
| 9A1FER-3 | 2026-09-01 00:53:46 | 46.13107 | 15.47053 | 90° | 150km/h | 12949m | -21.6m/s | 0°C | 0% | 0hPa | 0V | 00:00:00 | 00:00:00 | 00:00:00 | |
| 9A1FER-10 | 2026-09-01 00:53:38 | 46.13103 | 15.46601 | 90° | 139km/h | 13123m | -21.8m/s | 0°C | 0% | 0hPa | 0V | 00:00:00 | 00:00:00 | 00:00:00 | |
| 9A1FER-3 | 2026-09-01 00:53:31 | 46.13103 | 15.46241 | 89° | 133km/h | 13273m | -20.9m/s | 0°C | 0% | 0hPa | 0V | 00:00:00 | 00:00:00 | 00:00:00 | |
| 9A1FER-10 | 2026-09-01 00:53:23 | 46.13088 | 15.45850 | 86° | 130km/h | 13439m | -21.3m/s | 0°C | 0% | 0hPa | 0V | 00:00:00 | 00:00:00 | 00:00:00 | |
| 9A1FER-3 | 2026-09-01 00:53:16 | 46.13076 | 15.45518 | 90° | 122km/h | 13595m | -22.9m/s | 0°C | 0% | 0hPa | 0V | 00:00:00 | 00:00:00 | 00:00:00 | |
| 9A1FER-10 | 2026-09-01 00:53:08 | 46.13069 | 15.45151 | 88° | 115km/h | 13776m | -22.6m/s | 0°C | 0% | 0hPa | 0V | 00:00:00 | 00:00:00 | 00:00:00 | |
| 9A1FER-3 | 2026-09-01 00:53:01 | 46.13055 | 15.44849 | 85° | 106km/h | 13937m | -22.7m/s | 0°C | 0% | 0hPa | 0V | 00:00:00 | 00:00:00 | 00:00:00 | |
| 9A1FER-10 | 2026-09-01 00:52:53 | 46.13042 | 15.44532 | 85° | 97km/h | 14122m | -23.6m/s | 0°C | 0% | 0hPa | 0V | 00:00:00 | 00:00:00 | 00:00:00 | |
| 9A1FER-3 | 2026-09-01 00:52:47 | 46.13023 | 15.44276 | 85° | 91km/h | 14288m | -23.6m/s | 0°C | 0% | 0hPa | 0V | 00:00:00 | 00:00:00 | 00:00:00 | |
| 9A1FER-10 | 2026-09-01 00:52:38 | 46.13009 | 15.44008 | 86° | 91km/h | 14476m | -23.8m/s | 0°C | 0% | 0hPa | 0V | 00:00:00 | 00:00:00 | 00:00:00 | |
| 9A1FER-3 | 2026-09-01 00:52:31 | 46.12996 | 15.43781 | 84° | 91km/h | 14644m | -24.4m/s | 0°C | 0% | 0hPa | 0V | 00:00:00 | 00:00:00 | 00:00:00 | |
| 9A1FER-10 | 2026-09-01 00:52:23 | 46.12973 | 15.43516 | 83° | 88km/h | 14835m | -22.9m/s | 0°C | 0% | 0hPa | 0V | 00:00:00 | 00:00:00 | 00:00:00 | |
| 9A1FER-3 | 2026-09-01 00:52:16 | 46.12952 | 15.43290 | 83° | 88km/h | 15004m | -25.7m/s | 0°C | 0% | 0hPa | 0V | 00:00:00 | 00:00:00 | 00:00:00 | |
| 9A1FER-10 | 2026-09-01 00:52:08 | 46.12933 | 15.43041 | 78° | 86km/h | 15212m | -26.9m/s | 0°C | 0% | 0hPa | 0V | 00:00:00 | 00:00:00 | 00:00:00 | |
| 9A1FER-3 | 2026-09-01 00:52:01 | 46.12898 | 15.42818 | 87° | 73km/h | 15396m | -22.2m/s | 0°C | 0% | 0hPa | 0V | 00:00:00 | 00:00:00 | 00:00:00 | |
| 9A1FER-10 | 2026-09-01 00:51:53 | 46.12901 | 15.42580 | 94° | 57km/h | 15589m | -28.0m/s | 0°C | 0% | 0hPa | 0V | 00:00:00 | 00:00:00 | 00:00:00 | |
| PETON7-10 | 2026-09-01 00:51:49 | 46.12901 | 15.42485 | 88° | 57km/h | 15706m | -28.7m/s | 0°C | 0% | 0hPa | 0V | 00:00:00 | 00:00:00 | 00:00:00 | |
| 9A1FER-10 | 2026-09-01 00:51:38 | 46.12900 | 15.42268 | 93° | 40km/h | 16017m | -23.3m/s | 0°C | 0% | 0hPa | 0V | 00:00:00 | 00:00:00 | 00:00:00 | |
| 9A1FER-3 | 2026-09-01 00:51:31 | 46.12905 | 15.42165 | 84° | 46km/h | 16198m | -28.3m/s | 0°C | 0% | 0hPa | 0V | 00:00:00 | 00:00:00 | 00:00:00 | |
| 9A1FER-10 | 2026-09-01 00:51:23 | 46.12883 | 15.42050 | 77° | 58km/h | 16406m | -25.5m/s | 0°C | 0% | 0hPa | 0V | 00:00:00 | 00:00:00 | 00:00:00 | |
| 9A1FER-3 | 2026-09-01 00:51:16 | 46.12839 | 15.41935 | 49° | 53km/h | 16602m | -28.5m/s | 0°C | 0% | 0hPa | 0V | 00:00:00 | 00:00:00 | 00:00:00 | |
| 9A1FER-10 | 2026-09-01 00:51:08 | 46.12781 | 15.41782 | 79° | 44km/h | 16833m | -27.5m/s | 0°C | 0% | 0hPa | 0V | 00:00:00 | 00:00:00 | 00:00:00 | |
| 9A1FER-3 | 2026-09-01 00:51:00 | 46.12773 | 15.41650 | 86° | 27km/h | 17056m | -28.2m/s | 0°C | 0% | 0hPa | 0V | 00:00:00 | 00:00:00 | 00:00:00 | |
| PETON7-10 | 2026-09-01 00:50:59 | 46.12773 | 15.41637 | 90° | 26km/h | 17084m | -29.4m/s | 0°C | 0% | 0hPa | 0V | 00:00:00 | 00:00:00 | 00:00:00 | |
| 9A1FER-10 | 2026-09-01 00:50:53 | 46.12767 | 15.41572 | 74° | 22km/h | 17262m | -30.3m/s | 0°C | 0% | 0hPa | 0V | 00:00:00 | 00:00:00 | 00:00:00 | |
| 9A1FER-3 | 2026-09-01 00:50:45 | 46.12774 | 15.41506 | 105° | 22km/h | 17500m | -31.3m/s | 0°C | 0% | 0hPa | 0V | 00:00:00 | 00:00:00 | 00:00:00 | |
| PETON7-10 | 2026-09-01 00:50:42 | 46.12777 | 15.41485 | 92° | 18km/h | 17592m | -29.8m/s | 0°C | 0% | 0hPa | 0V | 00:00:00 | 00:00:00 | 00:00:00 | |
| 9A1FER-3 | 2026-09-01 00:50:30 | 46.12747 | 15.41398 | 57° | 24km/h | 17980m | -30.9m/s | 0°C | 0% | 0hPa | 0V | 00:00:00 | 00:00:00 | 00:00:00 | |
| PETON7-10 | 2026-09-01 00:50:27 | 46.12736 | 15.41375 | 63° | 26km/h | 18073m | -31.0m/s | 0°C | 0% | 0hPa | 0V | 00:00:00 | 00:00:00 | 00:00:00 | |
| 9A1FER-3 | 2026-09-01 00:50:15 | 46.12712 | 15.41279 | 70° | 22km/h | 18442m | -31.6m/s | 0°C | 0% | 0hPa | 0V | 00:00:00 | 00:00:00 | 00:00:00 | |
| PETON7-10 | 2026-09-01 00:50:10 | 46.12694 | 15.41240 | 54° | 18km/h | 18604m | -32.6m/s | 0°C | 0% | 0hPa | 0V | 00:00:00 | 00:00:00 | 00:00:00 | |
| 9A1FER-3 | 2026-09-01 00:50:00 | 46.12671 | 15.41177 | 67° | 15km/h | 18925m | -31.8m/s | 0°C | 0% | 0hPa | 0V | 00:00:00 | 00:00:00 | 00:00:00 | |
| 9A1FER-10 | 2026-09-01 00:49:57 | 46.12669 | 15.41165 | 85° | 15km/h | 19023m | -32.9m/s | 0°C | 0% | 0hPa | 0V | 00:00:00 | 00:00:00 | 00:00:00 | |
| PETON7-10 | 2026-09-01 00:49:55 | 46.12668 | 15.41157 | 81° | 16km/h | 19089m | -32.7m/s | 0°C | 0% | 0hPa | 0V | 00:00:00 | 00:00:00 | 00:00:00 | |
| 9A1FER-3 | 2026-09-01 00:49:45 | 46.12644 | 15.41116 | 18° | 22km/h | 19419m | -31.8m/s | 0°C | 0% | 0hPa | 0V | 00:00:00 | 00:00:00 | 00:00:00 | |
| 9A1FER-10 | 2026-09-01 00:49:42 | 46.12629 | 15.41111 | 1° | 22km/h | 19516m | -33.2m/s | 0°C | 0% | 0hPa | 0V | 00:00:00 | 00:00:00 | 00:00:00 | |
| PETON7-10 | 2026-09-01 00:49:39 | 46.12617 | 15.41113 | 341° | 22km/h | 19614m | -33.5m/s | 0°C | 0% | 0hPa | 0V | 00:00:00 | 00:00:00 | 00:00:00 | |
| 9A1FER-3 | 2026-09-01 00:49:30 | 46.12565 | 15.41118 | 24° | 20km/h | 19920m | -35.2m/s | 0°C | 0% | 0hPa | 0V | 00:00:00 | 00:00:00 | 00:00:00 | |
| 9A1FER-10 | 2026-09-01 00:49:26 | 46.12545 | 15.41099 | 44° | 18km/h | 20060m | -33.3m/s | 0°C | 0% | 0hPa | 0V | 00:00:00 | 00:00:00 | 00:00:00 | |
| PETON7-10 | 2026-09-01 00:49:24 | 46.12537 | 15.41086 | 47° | 15km/h | 20130m | -34.5m/s | 0°C | 0% | 0hPa | 0V | 00:00:00 | 00:00:00 | 00:00:00 | |
| 9A1FER-3 | 2026-09-01 00:49:15 | 46.12512 | 15.41041 | 34° | 9km/h | 20450m | -34.9m/s | 0°C | 0% | 0hPa | 0V | 00:00:00 | 00:00:00 | 00:00:00 | |
| 9A1FER-10 | 2026-09-01 00:49:11 | 46.12502 | 15.41029 | 38° | 11km/h | 20592m | -36.7m/s | 0°C | 0% | 0hPa | 0V | 00:00:00 | 00:00:00 | 00:00:00 | |
| PETON7-10 | 2026-09-01 00:49:05 | 46.12494 | 15.41018 | 68° | 9km/h | 20809m | -36.4m/s | 0°C | 0% | 0hPa | 0V | 00:00:00 | 00:00:00 | 00:00:00 | |
| 9A1FER-3 | 2026-09-01 00:49:00 | 46.12488 | 15.41009 | 70° | 9km/h | 20994m | -36.6m/s | 0°C | 0% | 0hPa | 0V | 00:00:00 | 00:00:00 | 00:00:00 | |
| 9A1FER-10 | 2026-09-01 00:48:55 | 46.12481 | 15.40992 | 60° | 9km/h | 21180m | -35.9m/s | 0°C | 0% | 0hPa | 0V | 00:00:00 | 00:00:00 | 00:00:00 | |
| PETON7-10 | 2026-09-01 00:48:49 | 46.12468 | 15.40973 | 49° | 11km/h | 21407m | -37.3m/s | 0°C | 0% | 0hPa | 0V | 00:00:00 | 00:00:00 | 00:00:00 | |
| 9A1FER-3 | 2026-09-01 00:48:45 | 46.12466 | 15.40968 | 343° | 11km/h | 21561m | -38.0m/s | 0°C | 0% | 0hPa | 0V | 00:00:00 | 00:00:00 | 00:00:00 | |
| 9A1FER-10 | 2026-09-01 00:48:40 | 46.12458 | 15.40969 | 9° | 15km/h | 21755m | -39.2m/s | 0°C | 0% | 0hPa | 0V | 00:00:00 | 00:00:00 | 00:00:00 | |
| PETON7-10 | 2026-09-01 00:48:31 | 46.12430 | 15.40953 | 18° | 11km/h | 22106m | -38.7m/s | 0°C | 0% | 0hPa | 0V | 00:00:00 | 00:00:00 | 00:00:00 | |
| 9A1FER-3 | 2026-09-01 00:48:30 | 46.12427 | 15.40951 | 39° | 11km/h | 22145m | -39.0m/s | 0°C | 0% | 0hPa | 0V | 00:00:00 | 00:00:00 | 00:00:00 | |
| 9A1FER-10 | 2026-09-01 00:48:25 | 46.12412 | 15.40940 | 48° | 7km/h | 22346m | -40.3m/s | 0°C | 0% | 0hPa | 0V | 00:00:00 | 00:00:00 | 00:00:00 | |
| 9A1FER-3 | 2026-09-01 00:48:15 | 46.12391 | 15.40933 | 6° | 13km/h | 22757m | -42.1m/s | 0°C | 0% | 0hPa | 0V | 00:00:00 | 00:00:00 | 00:00:00 | |
| PETON7-10 | 2026-09-01 00:48:14 | 46.12388 | 15.40932 | 55° | 9km/h | 22801m | -43.0m/s | 0°C | 0% | 0hPa | 0V | 00:00:00 | 00:00:00 | 00:00:00 | |
| 9A1FER-10 | 2026-09-01 00:48:10 | 46.12388 | 15.40930 | 192° | 15km/h | 22981m | -45.1m/s | 0°C | 0% | 0hPa | 0V | 00:00:00 | 00:00:00 | 00:00:00 | |
| 9A1FER-3 | 2026-09-01 00:48:00 | 46.12410 | 15.40971 | 281° | 9km/h | 23393m | -40.8m/s | 0°C | 0% | 0hPa | 0V | 00:00:00 | 00:00:00 | 00:00:00 | |
| PETON7-10 | 2026-09-01 00:47:59 | 46.12409 | 15.40978 | 283° | 13km/h | 23433m | -40.3m/s | 0°C | 0% | 0hPa | 0V | 00:00:00 | 00:00:00 | 00:00:00 | |
| 9A1FER-10 | 2026-09-01 00:47:54 | 46.12407 | 15.41001 | 248° | 16km/h | 23639m | -40.7m/s | 0°C | 0% | 0hPa | 0V | 00:00:00 | 00:00:00 | 00:00:00 | |
| 9A1FER-3 | 2026-09-01 00:47:43 | 46.12420 | 15.41030 | 271° | 22km/h | 24104m | -41.8m/s | 0°C | 0% | 0hPa | 0V | 00:00:00 | 00:00:00 | 00:00:00 | |
| PETON7-10 | 2026-09-01 00:47:42 | 46.12419 | 15.41036 | 286° | 27km/h | 24146m | -43.3m/s | 0°C | 0% | 0hPa | 0V | 00:00:00 | 00:00:00 | 00:00:00 | |
| 9A1FER-3 | 2026-09-01 00:47:28 | 46.12370 | 15.41121 | 305° | 22km/h | 24705m | -17.7m/s | 0°C | 0% | 0hPa | 0V | 00:00:00 | 00:00:00 | 00:00:00 | |
| PETON7-10 | 2026-09-01 00:47:25 | 46.12343 | 15.41139 | 344° | 16km/h | 24706m | 3.7m/s | 0°C | 0% | 0hPa | 0V | 00:00:00 | 00:00:00 | 00:00:00 | |
| 9A1FER-3 | 2026-09-01 00:47:13 | 46.12298 | 15.41155 | 57° | 22km/h | 24635m | 6.0m/s | 0°C | 0% | 0hPa | 0V | 00:00:00 | 00:00:00 | 00:00:00 | |
| PETON7-10 | 2026-09-01 00:47:10 | 46.12286 | 15.41162 | 322° | 20km/h | 24619m | 8.6m/s | 0°C | 0% | 0hPa | 0V | 00:00:00 | 00:00:00 | 00:00:00 | |
| 9A1FER-3 | 2026-09-01 00:46:58 | 46.12243 | 15.41208 | 336° | 18km/h | 24552m | 4.6m/s | 0°C | 0% | 0hPa | 0V | 00:00:00 | 00:00:00 | 00:00:00 | |
| PETON7-10 | 2026-09-01 00:46:55 | 46.12237 | 15.41208 | 303° | 20km/h | 24536m | 3.1m/s | 0°C | 0% | 0hPa | 0V | 00:00:00 | 00:00:00 | 00:00:00 | |
| 9A1FER-3 | 2026-09-01 00:46:43 | 46.12202 | 15.41283 | 287° | 26km/h | 24471m | 3.9m/s | 0°C | 0% | 0hPa | 0V | 00:00:00 | 00:00:00 | 00:00:00 | |
| PETON7-10 | 2026-09-01 00:46:40 | 46.12188 | 15.41304 | 340° | 26km/h | 24454m | 4.9m/s | 0°C | 0% | 0hPa | 0V | 00:00:00 | 00:00:00 | 00:00:00 | |
| 9A1FER-3 | 2026-09-01 00:46:28 | 46.12151 | 15.41392 | 292° | 24km/h | 24390m | 6.7m/s | 0°C | 0% | 0hPa | 0V | 00:00:00 | 00:00:00 | 00:00:00 | |
| PETON7-10 | 2026-09-01 00:46:25 | 46.12146 | 15.41416 | 321° | 24km/h | 24373m | 6.2m/s | 0°C | 0% | 0hPa | 0V | 00:00:00 | 00:00:00 | 00:00:00 | |
| 9A1FER-3 | 2026-09-01 00:46:13 | 46.12131 | 15.41487 | 300° | 20km/h | 24311m | 5.9m/s | 0°C | 0% | 0hPa | 0V | 00:00:00 | 00:00:00 | 00:00:00 | |
| PETON7-10 | 2026-09-01 00:46:09 | 46.12128 | 15.41532 | 243° | 15km/h | 24292m | 4.6m/s | 0°C | 0% | 0hPa | 0V | 00:00:00 | 00:00:00 | 00:00:00 | |
| 9A1FER-3 | 2026-09-01 00:45:58 | 46.12121 | 15.41575 | 203° | 18km/h | 24235m | 0.8m/s | 0°C | 0% | 0hPa | 0V | 00:00:00 | 00:00:00 | 00:00:00 | |
| PETON7-10 | 2026-09-01 00:45:53 | 46.12107 | 15.41609 | 265° | 16km/h | 24210m | 4.3m/s | 0°C | 0% | 0hPa | 0V | 00:00:00 | 00:00:00 | 00:00:00 | |
| 9A1FER-3 | 2026-09-01 00:45:43 | 46.12105 | 15.41657 | 277° | 16km/h | 24161m | 6.5m/s | 0°C | 0% | 0hPa | 0V | 00:00:00 | 00:00:00 | 00:00:00 | |
| PETON7-10 | 2026-09-01 00:45:38 | 46.12112 | 15.41678 | 294° | 15km/h | 24136m | 4.5m/s | 0°C | 0% | 0hPa | 0V | 00:00:00 | 00:00:00 | 00:00:00 | |
| 9A1FER-3 | 2026-09-01 00:45:28 | 46.12122 | 15.41727 | 305° | 13km/h | 24087m | 5.3m/s | 0°C | 0% | 0hPa | 0V | 00:00:00 | 00:00:00 | 00:00:00 | |
| PETON7-10 | 2026-09-01 00:45:23 | 46.12131 | 15.41738 | 249° | 11km/h | 24064m | 5.7m/s | 0°C | 0% | 0hPa | 0V | 00:00:00 | 00:00:00 | 00:00:00 | |
| 9A1FER-3 | 2026-09-01 00:45:13 | 46.12135 | 15.41764 | 195° | 9km/h | 24014m | 4.2m/s | 0°C | 0% | 0hPa | 0V | 00:00:00 | 00:00:00 | 00:00:00 | |
| PETON7-10 | 2026-09-01 00:45:08 | 46.12147 | 15.41765 | 199° | 9km/h | 23989m | 3.5m/s | 0°C | 0% | 0hPa | 0V | 00:00:00 | 00:00:00 | 00:00:00 | |
| 9A1FER-3 | 2026-09-01 00:44:58 | 46.12162 | 15.41771 | 191° | 9km/h | 23940m | 6.1m/s | 0°C | 0% | 0hPa | 0V | 00:00:00 | 00:00:00 | 00:00:00 | |
| PETON7-10 | 2026-09-01 00:44:53 | 46.12171 | 15.41773 | 305° | 9km/h | 23915m | 4.8m/s | 0°C | 0% | 0hPa | 0V | 00:00:00 | 00:00:00 | 00:00:00 | |
| 9A1FER-3 | 2026-09-01 00:44:43 | 46.12178 | 15.41760 | 326° | 9km/h | 23866m | 5.3m/s | 0°C | 0% | 0hPa | 0V | 00:00:00 | 00:00:00 | 00:00:00 | |
| PETON7-10 | 2026-09-01 00:44:38 | 46.12184 | 15.41751 | 162° | 11km/h | 23845m | 5.2m/s | 0°C | 0% | 0hPa | 0V | 00:00:00 | 00:00:00 | 00:00:00 | |
| 9A1FER-3 | 2026-09-01 00:44:28 | 46.12189 | 15.41769 | 188° | 13km/h | 23795m | 6.7m/s | 0°C | 0% | 0hPa | 0V | 00:00:00 | 00:00:00 | 00:00:00 | |
| PETON7-10 | 2026-09-01 00:44:23 | 46.12190 | 15.41782 | 291° | 13km/h | 23770m | 5.3m/s | 0°C | 0% | 0hPa | 0V | 00:00:00 | 00:00:00 | 00:00:00 | |
| 9A1FER-10 | 2026-09-01 00:44:13 | 46.12186 | 15.41815 | 295° | 16km/h | 23720m | 4.6m/s | 0°C | 0% | 0hPa | 0V | 00:00:00 | 00:00:00 | 00:00:00 | |
| PETON7-10 | 2026-09-01 00:44:07 | 46.12173 | 15.41835 | 305° | 18km/h | 23691m | 3.7m/s | 0°C | 0% | 0hPa | 0V | 00:00:00 | 00:00:00 | 00:00:00 | |
| 9A1FER-3 | 2026-09-01 00:43:58 | 46.12157 | 15.41883 | 302° | 20km/h | 23646m | 5.7m/s | 0°C | 0% | 0hPa | 0V | 00:00:00 | 00:00:00 | 00:00:00 | |
| PETON7-10 | 2026-09-01 00:43:52 | 46.12146 | 15.41915 | 326° | 26km/h | 23616m | 6.5m/s | 0°C | 0% | 0hPa | 0V | 00:00:00 | 00:00:00 | 00:00:00 | |
| 9A1FER-10 | 2026-09-01 00:43:43 | 46.12130 | 15.41977 | 301° | 22km/h | 23569m | 4.8m/s | 0°C | 0% | 0hPa | 0V | 00:00:00 | 00:00:00 | 00:00:00 | |
| PETON7-10 | 2026-09-01 00:43:36 | 46.12124 | 15.42041 | 259° | 20km/h | 23532m | 7.5m/s | 0°C | 0% | 0hPa | 0V | 00:00:00 | 00:00:00 | 00:00:00 | |
| 9A1FER-3 | 2026-09-01 00:43:29 | 46.12127 | 15.42102 | 269° | 24km/h | 23489m | 5.6m/s | 0°C | 0% | 0hPa | 0V | 00:00:00 | 00:00:00 | 00:00:00 | |
| 9A1FER-10 | 2026-09-01 00:43:26 | 46.12126 | 15.42118 | 270° | 24km/h | 23479m | 3.6m/s | 0°C | 0% | 0hPa | 0V | 00:00:00 | 00:00:00 | 00:00:00 | |
| PETON7-10 | 2026-09-01 00:43:21 | 46.12137 | 15.42156 | 265° | 24km/h | 23451m | 6.1m/s | 0°C | 0% | 0hPa | 0V | 00:00:00 | 00:00:00 | 00:00:00 | |
| 9A1FER-3 | 2026-09-01 00:43:13 | 46.12160 | 15.42213 | 241° | 26km/h | 23406m | 6.4m/s | 0°C | 0% | 0hPa | 0V | 00:00:00 | 00:00:00 | 00:00:00 | |
| 9A1FER-10 | 2026-09-01 00:43:11 | 46.12167 | 15.42225 | 232° | 26km/h | 23393m | 6.4m/s | 0°C | 0% | 0hPa | 0V | 00:00:00 | 00:00:00 | 00:00:00 | |
| PETON7-10 | 2026-09-01 00:43:06 | 46.12192 | 15.42244 | 224° | 26km/h | 23365m | 7.5m/s | 0°C | 0% | 0hPa | 0V | 00:00:00 | 00:00:00 | 00:00:00 | |
| 9A1FER-3 | 2026-09-01 00:42:58 | 46.12231 | 15.42288 | 241° | 22km/h | 23320m | 5.7m/s | 0°C | 0% | 0hPa | 0V | 00:00:00 | 00:00:00 | 00:00:00 | |
| 9A1FER-10 | 2026-09-01 00:42:57 | 46.12236 | 15.42296 | 188° | 20km/h | 23308m | 4.9m/s | 0°C | 0% | 0hPa | 0V | 00:00:00 | 00:00:00 | 00:00:00 | |
| PETON7-10 | 2026-09-01 00:42:51 | 46.12267 | 15.42308 | 176° | 16km/h | 23282m | 7.1m/s | 0°C | 0% | 0hPa | 0V | 00:00:00 | 00:00:00 | 00:00:00 | |
| 9A1FER-3 | 2026-09-01 00:42:48 | 46.12301 | 15.42318 | 164° | 15km/h | 23237m | 5.0m/s | 0°C | 0% | 0hPa | 0V | 00:00:00 | 00:00:00 | 00:00:00 | |
| 9A1FER-10 | 2026-09-01 00:42:47 | 46.12308 | 15.42319 | 257° | 13km/h | 23225m | 6.4m/s | 0°C | 0% | 0hPa | 0V | 00:00:00 | 00:00:00 | 00:00:00 | |
| PETON7-10 | 2026-09-01 00:42:37 | 46.12322 | 15.42327 | 214° | 15km/h | 23191m | 3.7m/s | 0°C | 0% | 0hPa | 0V | 00:00:00 | 00:00:00 | 00:00:00 | |
| 9A1FER-3 | 2026-09-01 00:42:28 | 46.12337 | 15.42323 | 228° | 13km/h | 23154m | 4.3m/s | 0°C | 0% | 0hPa | 0V | 00:00:00 | 00:00:00 | 00:00:00 | |
| 9A1FER-10 | 2026-09-01 00:42:27 | 46.12344 | 15.42321 | 129° | 15km/h | 23141m | 6.8m/s | 0°C | 0% | 0hPa | 0V | 00:00:00 | 00:00:00 | 00:00:00 | |
| PETON7-10 | 2026-09-01 00:42:16 | 46.12359 | 15.42297 | 190° | 16km/h | 23086m | 5.0m/s | 0°C | 0% | 0hPa | 0V | 00:00:00 | 00:00:00 | 00:00:00 | |
| 9A1FER-3 | 2026-09-01 00:42:13 | 46.12356 | 15.42287 | 81° | 18km/h | 23068m | 3.8m/s | 0°C | 0% | 0hPa | 0V | 00:00:00 | 00:00:00 | 00:00:00 | |
| 9A1FER-10 | 2026-09-01 00:42:11 | 46.12360 | 15.42277 | 152° | 18km/h | 23056m | 6.8m/s | 0°C | 0% | 0hPa | 0V | 00:00:00 | 00:00:00 | 00:00:00 | |
| PETON7-10 | 2026-09-01 00:42:00 | 46.12370 | 15.42222 | 11° | 15km/h | 22993m | 3.9m/s | 0°C | 0% | 0hPa | 0V | 00:00:00 | 00:00:00 | 00:00:00 | |
| 9A1FER-3 | 2026-09-01 00:41:58 | 46.12363 | 15.42213 | 56° | 16km/h | 22980m | 7.1m/s | 0°C | 0% | 0hPa | 0V | 00:00:00 | 00:00:00 | 00:00:00 | |
| 9A1FER-10 | 2026-09-01 00:41:56 | 46.12358 | 15.42196 | 78° | 16km/h | 22970m | 6.9m/s | 0°C | 0% | 0hPa | 0V | 00:00:00 | 00:00:00 | 00:00:00 | |
| PETON7-10 | 2026-09-01 00:41:43 | 46.12332 | 15.42165 | 24° | 20km/h | 22894m | 7.4m/s | 0°C | 0% | 0hPa | 0V | 00:00:00 | 00:00:00 | 00:00:00 | |
| 9A1FER-10 | 2026-09-01 00:41:41 | 46.12320 | 15.42152 | 43° | 18km/h | 22883m | 5.5m/s | 0°C | 0% | 0hPa | 0V | 00:00:00 | 00:00:00 | 00:00:00 | |
| PETON7-10 | 2026-09-01 00:41:28 | 46.12268 | 15.42124 | 320° | 18km/h | 22808m | 3.6m/s | 0°C | 0% | 0hPa | 0V | 00:00:00 | 00:00:00 | 00:00:00 | |
| 9A1FER-10 | 2026-09-01 00:41:26 | 46.12260 | 15.42124 | 15° | 18km/h | 22797m | 6.2m/s | 0°C | 0% | 0hPa | 0V | 00:00:00 | 00:00:00 | 00:00:00 | |
| 9A1FER-3 | 2026-09-01 00:41:13 | 46.12214 | 15.42116 | 28° | 11km/h | 22729m | 4.5m/s | 0°C | 0% | 0hPa | 0V | 00:00:00 | 00:00:00 | 00:00:00 | |
| PETON7-10 | 2026-09-01 00:41:11 | 46.12208 | 15.42107 | 93° | 7km/h | 22719m | 6.9m/s | 0°C | 0% | 0hPa | 0V | 00:00:00 | 00:00:00 | 00:00:00 | |
| 9A1FER-3 | 2026-09-01 00:40:58 | 46.12195 | 15.42099 | 313° | 9km/h | 22649m | 4.6m/s | 0°C | 0% | 0hPa | 0V | 00:00:00 | 00:00:00 | 00:00:00 | |
| PETON7-10 | 2026-09-01 00:40:56 | 46.12192 | 15.42097 | 74° | 9km/h | 22639m | 3.9m/s | 0°C | 0% | 0hPa | 0V | 00:00:00 | 00:00:00 | 00:00:00 | |
| 9A1FER-3 | 2026-09-01 00:40:43 | 46.12185 | 15.42084 | 345° | 9km/h | 22571m | 5.5m/s | 0°C | 0% | 0hPa | 0V | 00:00:00 | 00:00:00 | 00:00:00 | |
| PETON7-10 | 2026-09-01 00:40:40 | 46.12178 | 15.42088 | 10° | 7km/h | 22557m | 4.8m/s | 0°C | 0% | 0hPa | 0V | 00:00:00 | 00:00:00 | 00:00:00 | |
| 9A1FER-3 | 2026-09-01 00:40:28 | 46.12163 | 15.42083 | 222° | 11km/h | 22495m | 4.7m/s | 0°C | 0% | 0hPa | 0V | 00:00:00 | 00:00:00 | 00:00:00 | |
| PETON7-10 | 2026-09-01 00:40:25 | 46.12163 | 15.42077 | 53° | 13km/h | 22480m | 2.7m/s | 0°C | 0% | 0hPa | 0V | 00:00:00 | 00:00:00 | 00:00:00 | |
| 9A1FER-3 | 2026-09-01 00:40:13 | 46.12148 | 15.42042 | 139° | 13km/h | 22421m | 5.7m/s | 0°C | 0% | 0hPa | 0V | 00:00:00 | 00:00:00 | 00:00:00 | |
| 9A1FER-10 | 2026-09-01 00:40:04 | 46.12139 | 15.42014 | 106° | 16km/h | 22376m | 5.4m/s | 0°C | 0% | 0hPa | 0V | 00:00:00 | 00:00:00 | 00:00:00 | |
| 9A1FER-3 | 2026-09-01 00:39:58 | 46.12126 | 15.42001 | 62° | 16km/h | 22347m | 6.2m/s | 0°C | 0% | 0hPa | 0V | 00:00:00 | 00:00:00 | 00:00:00 | |
| PETON7-10 | 2026-09-01 00:39:55 | 46.12126 | 15.41984 | 94° | 20km/h | 22332m | 4.1m/s | 0°C | 0% | 0hPa | 0V | 00:00:00 | 00:00:00 | 00:00:00 | |
| 9A1FER-10 | 2026-09-01 00:39:49 | 46.12107 | 15.41962 | 73° | 20km/h | 22302m | 4.3m/s | 0°C | 0% | 0hPa | 0V | 00:00:00 | 00:00:00 | 00:00:00 | |
| 9A1FER-3 | 2026-09-01 00:39:43 | 46.12092 | 15.41937 | 26° | 22km/h | 22271m | 5.8m/s | 0°C | 0% | 0hPa | 0V | 00:00:00 | 00:00:00 | 00:00:00 | |
| PETON7-10 | 2026-09-01 00:39:40 | 46.12085 | 15.41918 | 112° | 18km/h | 22254m | 6.3m/s | 0°C | 0% | 0hPa | 0V | 00:00:00 | 00:00:00 | 00:00:00 | |
| 9A1FER-10 | 2026-09-01 00:39:33 | 46.12059 | 15.41886 | 104° | 16km/h | 22220m | 5.8m/s | 0°C | 0% | 0hPa | 0V | 00:00:00 | 00:00:00 | 00:00:00 | |
| 9A1FER-3 | 2026-09-01 00:39:28 | 46.12047 | 15.41867 | 359° | 16km/h | 22195m | 3.1m/s | 0°C | 0% | 0hPa | 0V | 00:00:00 | 00:00:00 | 00:00:00 | |
| PETON7-10 | 2026-09-01 00:39:22 | 46.12029 | 15.41845 | 14° | 16km/h | 22163m | 5.0m/s | 0°C | 0% | 0hPa | 0V | 00:00:00 | 00:00:00 | 00:00:00 | |
| 9A1FER-10 | 2026-09-01 00:39:18 | 46.12012 | 15.41837 | 341° | 18km/h | 22143m | 6.2m/s | 0°C | 0% | 0hPa | 0V | 00:00:00 | 00:00:00 | 00:00:00 | |
| 9A1FER-3 | 2026-09-01 00:39:13 | 46.11996 | 15.41829 | 358° | 18km/h | 22115m | 6.3m/s | 0°C | 0% | 0hPa | 0V | 00:00:00 | 00:00:00 | 00:00:00 | |
| PETON7-10 | 2026-09-01 00:39:07 | 46.11972 | 15.41826 | 320° | 15km/h | 22082m | 5.0m/s | 0°C | 0% | 0hPa | 0V | 00:00:00 | 00:00:00 | 00:00:00 | |
| 9A1FER-10 | 2026-09-01 00:39:03 | 46.11954 | 15.41827 | 9° | 15km/h | 22061m | 5.5m/s | 0°C | 0% | 0hPa | 0V | 00:00:00 | 00:00:00 | 00:00:00 | |
| 9A1FER-3 | 2026-09-01 00:38:58 | 46.11937 | 15.41833 | 22° | 13km/h | 22035m | 3.2m/s | 0°C | 0% | 0hPa | 0V | 00:00:00 | 00:00:00 | 00:00:00 | |
| PETON7-10 | 2026-09-01 00:38:52 | 46.11921 | 15.41834 | 41° | 15km/h | 22000m | 5.6m/s | 0°C | 0% | 0hPa | 0V | 00:00:00 | 00:00:00 | 00:00:00 | |
| 9A1FER-10 | 2026-09-01 00:38:48 | 46.11910 | 15.41825 | 23° | 18km/h | 21978m | 5.2m/s | 0°C | 0% | 0hPa | 0V | 00:00:00 | 00:00:00 | 00:00:00 | |
| 9A1FER-3 | 2026-09-01 00:38:43 | 46.11895 | 15.41823 | 38° | 18km/h | 21950m | 6.7m/s | 0°C | 0% | 0hPa | 0V | 00:00:00 | 00:00:00 | 00:00:00 | |
| PETON7-10 | 2026-09-01 00:38:37 | 46.11875 | 15.41797 | 38° | 18km/h | 21915m | 4.8m/s | 0°C | 0% | 0hPa | 0V | 00:00:00 | 00:00:00 | 00:00:00 | |
| 9A1FER-10 | 2026-09-01 00:38:32 | 46.11854 | 15.41775 | 31° | 18km/h | 21887m | 2.5m/s | 0°C | 0% | 0hPa | 0V | 00:00:00 | 00:00:00 | 00:00:00 | |
| 9A1FER-3 | 2026-09-01 00:38:28 | 46.11845 | 15.41762 | 99° | 20km/h | 21865m | 5.2m/s | 0°C | 0% | 0hPa | 0V | 00:00:00 | 00:00:00 | 00:00:00 | |
| PETON7-10 | 2026-09-01 00:38:22 | 46.11814 | 15.41736 | 38° | 16km/h | 21829m | 6.4m/s | 0°C | 0% | 0hPa | 0V | 00:00:00 | 00:00:00 | 00:00:00 | |
| 9A1FER-10 | 2026-09-01 00:38:17 | 46.11803 | 15.41730 | 18° | 18km/h | 21801m | 8.6m/s | 0°C | 0% | 0hPa | 0V | 00:00:00 | 00:00:00 | 00:00:00 | |
| PETON7-10 | 2026-09-01 00:38:07 | 46.11762 | 15.41721 | 358° | 15km/h | 21742m | 7.0m/s | 0°C | 0% | 0hPa | 0V | 00:00:00 | 00:00:00 | 00:00:00 | |
| 9A1FER-10 | 2026-09-01 00:38:02 | 46.11750 | 15.41729 | 335° | 11km/h | 21712m | 7.1m/s | 0°C | 0% | 0hPa | 0V | 00:00:00 | 00:00:00 | 00:00:00 | |
| 9A1FER-3 | 2026-09-01 00:37:58 | 46.11734 | 15.41733 | 299° | 11km/h | 21688m | 5.1m/s | 0°C | 0% | 0hPa | 0V | 00:00:00 | 00:00:00 | 00:00:00 | |
| PETON7-10 | 2026-09-01 00:37:52 | 46.11723 | 15.41749 | 306° | 11km/h | 21653m | 3.7m/s | 0°C | 0% | 0hPa | 0V | 00:00:00 | 00:00:00 | 00:00:00 | |
| 9A1FER-10 | 2026-09-01 00:37:45 | 46.11710 | 15.41764 | 47° | 7km/h | 21614m | 7.2m/s | 0°C | 0% | 0hPa | 0V | 00:00:00 | 00:00:00 | 00:00:00 | |
| 9A1FER-3 | 2026-09-01 00:37:43 | 46.11707 | 15.41761 | 342° | 9km/h | 21603m | 6.0m/s | 0°C | 0% | 0hPa | 0V | 00:00:00 | 00:00:00 | 00:00:00 | |
| PETON7-10 | 2026-09-01 00:37:35 | 46.11706 | 15.41779 | 210° | 5km/h | 21558m | 4.4m/s | 0°C | 0% | 0hPa | 0V | 00:00:00 | 00:00:00 | 00:00:00 | |
| 9A1FER-3 | 2026-09-01 00:37:28 | 46.11709 | 15.41789 | 335° | 7km/h | 21519m | 6.4m/s | 0°C | 0% | 0hPa | 0V | 00:00:00 | 00:00:00 | 00:00:00 | |
| PETON7-10 | 2026-09-01 00:37:20 | 46.11713 | 15.41793 | 283° | 9km/h | 21474m | 4.3m/s | 0°C | 0% | 0hPa | 0V | 00:00:00 | 00:00:00 | 00:00:00 | |
| 9A1FER-3 | 2026-09-01 00:37:13 | 46.11718 | 15.41782 | 47° | 13km/h | 21436m | 4.4m/s | 0°C | 0% | 0hPa | 0V | 00:00:00 | 00:00:00 | 00:00:00 | |
| PETON7-10 | 2026-09-01 00:37:05 | 46.11713 | 15.41764 | 5° | 15km/h | 21393m | 3.6m/s | 0°C | 0% | 0hPa | 0V | 00:00:00 | 00:00:00 | 00:00:00 | |
| 9A1FER-10 | 2026-09-01 00:36:58 | 46.11704 | 15.41734 | 99° | 18km/h | 21356m | 6.3m/s | 0°C | 0% | 0hPa | 0V | 00:00:00 | 00:00:00 | 00:00:00 | |
| PETON7-10 | 2026-09-01 00:36:50 | 46.11687 | 15.41697 | 27° | 20km/h | 21314m | 3.7m/s | 0°C | 0% | 0hPa | 0V | 00:00:00 | 00:00:00 | 00:00:00 | |
| 9A1FER-3 | 2026-09-01 00:36:43 | 46.11662 | 15.41676 | 352° | 16km/h | 21278m | 5.1m/s | 0°C | 0% | 0hPa | 0V | 00:00:00 | 00:00:00 | 00:00:00 | |
| PETON7-10 | 2026-09-01 00:36:35 | 46.11634 | 15.41653 | 342° | 18km/h | 21237m | 4.6m/s | 0°C | 0% | 0hPa | 0V | 00:00:00 | 00:00:00 | 00:00:00 | |
| 9A1FER-3 | 2026-09-01 00:36:28 | 46.11611 | 15.41626 | 27° | 15km/h | 21202m | 5.9m/s | 0°C | 0% | 0hPa | 0V | 00:00:00 | 00:00:00 | 00:00:00 | |
| PETON7-10 | 2026-09-01 00:36:20 | 46.11591 | 15.41593 | 17° | 13km/h | 21163m | 3.9m/s | 0°C | 0% | 0hPa | 0V | 00:00:00 | 00:00:00 | 00:00:00 | |
| 9A1FER-3 | 2026-09-01 00:36:13 | 46.11576 | 15.41567 | 60° | 13km/h | 21130m | 6.0m/s | 0°C | 0% | 0hPa | 0V | 00:00:00 | 00:00:00 | 00:00:00 | |
| 9A1FER-10 | 2026-09-01 00:36:12 | 46.11574 | 15.41560 | 76° | 15km/h | 21125m | 3.5m/s | 0°C | 0% | 0hPa | 0V | 00:00:00 | 00:00:00 | 00:00:00 | |
| PETON7-10 | 2026-09-01 00:36:05 | 46.11566 | 15.41536 | 31° | 13km/h | 21092m | 6.1m/s | 0°C | 0% | 0hPa | 0V | 00:00:00 | 00:00:00 | 00:00:00 | |
| 9A1FER-3 | 2026-09-01 00:35:58 | 46.11557 | 15.41512 | 70° | 13km/h | 21055m | 5.8m/s | 0°C | 0% | 0hPa | 0V | 00:00:00 | 00:00:00 | 00:00:00 | |
| 9A1FER-10 | 2026-09-01 00:35:57 | 46.11555 | 15.41507 | 63° | 13km/h | 21050m | 3.6m/s | 0°C | 0% | 0hPa | 0V | 00:00:00 | 00:00:00 | 00:00:00 | |
| PETON7-10 | 2026-09-01 00:35:50 | 46.11547 | 15.41480 | 34° | 11km/h | 21016m | 5.6m/s | 0°C | 0% | 0hPa | 0V | 00:00:00 | 00:00:00 | 00:00:00 | |
| 9A1FER-3 | 2026-09-01 00:35:43 | 46.11532 | 15.41464 | 70° | 11km/h | 20982m | 6.8m/s | 0°C | 0% | 0hPa | 0V | 00:00:00 | 00:00:00 | 00:00:00 | |
| 9A1FER-10 | 2026-09-01 00:35:42 | 46.11531 | 15.41457 | 77° | 9km/h | 20977m | 3.4m/s | 0°C | 0% | 0hPa | 0V | 00:00:00 | 00:00:00 | 00:00:00 | |
| PETON7-10 | 2026-09-01 00:35:33 | 46.11515 | 15.41442 | 47° | 7km/h | 20935m | 6.1m/s | 0°C | 0% | 0hPa | 0V | 00:00:00 | 00:00:00 | 00:00:00 | |
| 9A1FER-3 | 2026-09-01 00:35:28 | 46.11508 | 15.41435 | 70° | 9km/h | 20910m | 6.3m/s | 0°C | 0% | 0hPa | 0V | 00:00:00 | 00:00:00 | 00:00:00 | |
| 9A1FER-10 | 2026-09-01 00:35:27 | 46.11508 | 15.41432 | 100° | 9km/h | 20905m | 4.3m/s | 0°C | 0% | 0hPa | 0V | 00:00:00 | 00:00:00 | 00:00:00 | |
| PETON7-10 | 2026-09-01 00:35:18 | 46.11499 | 15.41425 | 90° | 11km/h | 20860m | 5.0m/s | 0°C | 0% | 0hPa | 0V | 00:00:00 | 00:00:00 | 00:00:00 | |
| 9A1FER-3 | 2026-09-01 00:35:13 | 46.11490 | 15.41432 | 240° | 9km/h | 20836m | 6.7m/s | 0°C | 0% | 0hPa | 0V | 00:00:00 | 00:00:00 | 00:00:00 | |
| 9A1FER-10 | 2026-09-01 00:35:12 | 46.11491 | 15.41432 | 166° | 9km/h | 20830m | 4.1m/s | 0°C | 0% | 0hPa | 0V | 00:00:00 | 00:00:00 | 00:00:00 | |
| PETON7-10 | 2026-09-01 00:35:03 | 46.11483 | 15.41434 | 20° | 7km/h | 20787m | 5.6m/s | 0°C | 0% | 0hPa | 0V | 00:00:00 | 00:00:00 | 00:00:00 | |
| 9A1FER-3 | 2026-09-01 00:34:58 | 46.11477 | 15.41428 | 329° | 9km/h | 20761m | 7.5m/s | 0°C | 0% | 0hPa | 0V | 00:00:00 | 00:00:00 | 00:00:00 | |
| 9A1FER-10 | 2026-09-01 00:34:57 | 46.11477 | 15.41430 | 262° | 9km/h | 20755m | 4.4m/s | 0°C | 0% | 0hPa | 0V | 00:00:00 | 00:00:00 | 00:00:00 | |
| PETON7-10 | 2026-09-01 00:34:48 | 46.11469 | 15.41411 | 175° | 11km/h | 20707m | 4.9m/s | 0°C | 0% | 0hPa | 0V | 00:00:00 | 00:00:00 | 00:00:00 | |
| 9A1FER-3 | 2026-09-01 00:34:43 | 46.11460 | 15.41396 | 9° | 13km/h | 20680m | 4.3m/s | 0°C | 0% | 0hPa | 0V | 00:00:00 | 00:00:00 | 00:00:00 | |
| 9A1FER-10 | 2026-09-01 00:34:41 | 46.11455 | 15.41391 | 63° | 11km/h | 20669m | 5.5m/s | 0°C | 0% | 0hPa | 0V | 00:00:00 | 00:00:00 | 00:00:00 | |
| PETON7-10 | 2026-09-01 00:34:33 | 46.11441 | 15.41365 | 355° | 11km/h | 20626m | 4.1m/s | 0°C | 0% | 0hPa | 0V | 00:00:00 | 00:00:00 | 00:00:00 | |
| 9A1FER-3 | 2026-09-01 00:34:28 | 46.11432 | 15.41348 | 59° | 13km/h | 20600m | 6.2m/s | 0°C | 0% | 0hPa | 0V | 00:00:00 | 00:00:00 | 00:00:00 | |
| 9A1FER-10 | 2026-09-01 00:34:26 | 46.11430 | 15.41345 | 40° | 11km/h | 20589m | 6.5m/s | 0°C | 0% | 0hPa | 0V | 00:00:00 | 00:00:00 | 00:00:00 | |
| PETON7-10 | 2026-09-01 00:34:18 | 46.11414 | 15.41319 | 96° | 15km/h | 20543m | 5.5m/s | 0°C | 0% | 0hPa | 0V | 00:00:00 | 00:00:00 | 00:00:00 | |
| 9A1FER-10 | 2026-09-01 00:34:09 | 46.11399 | 15.41288 | 33° | 16km/h | 20495m | 4.7m/s | 0°C | 0% | 0hPa | 0V | 00:00:00 | 00:00:00 | 00:00:00 | |
| PETON7-10 | 2026-09-01 00:34:03 | 46.11385 | 15.41269 | 60° | 15km/h | 20461m | 5.0m/s | 0°C | 0% | 0hPa | 0V | 00:00:00 | 00:00:00 | 00:00:00 | |
| 9A1FER-3 | 2026-09-01 00:33:58 | 46.11368 | 15.41258 | 14° | 15km/h | 20432m | 4.4m/s | 0°C | 0% | 0hPa | 0V | 00:00:00 | 00:00:00 | 00:00:00 | |
| PETON7-10 | 2026-09-01 00:33:48 | 46.11351 | 15.41231 | 81° | 16km/h | 20374m | 5.0m/s | 0°C | 0% | 0hPa | 0V | 00:00:00 | 00:00:00 | 00:00:00 | |
| 9A1FER-3 | 2026-09-01 00:33:43 | 46.11343 | 15.41209 | 21° | 18km/h | 20345m | 5.6m/s | 0°C | 0% | 0hPa | 0V | 00:00:00 | 00:00:00 | 00:00:00 | |
| PETON7-10 | 2026-09-01 00:33:33 | 46.11319 | 15.41176 | 72° | 18km/h | 20288m | 5.4m/s | 0°C | 0% | 0hPa | 0V | 00:00:00 | 00:00:00 | 00:00:00 | |
| 9A1FER-10 | 2026-09-01 00:33:29 | 46.11318 | 15.41148 | 53° | 20km/h | 20265m | 6.4m/s | 0°C | 0% | 0hPa | 0V | 00:00:00 | 00:00:00 | 00:00:00 | |
| 9A1FER-3 | 2026-09-01 00:33:28 | 46.11313 | 15.41142 | 30° | 18km/h | 20259m | 5.3m/s | 0°C | 0% | 0hPa | 0V | 00:00:00 | 00:00:00 | 00:00:00 | |
| PETON7-10 | 2026-09-01 00:33:15 | 46.11279 | 15.41074 | 78° | 22km/h | 20184m | 6.3m/s | 0°C | 0% | 0hPa | 0V | 00:00:00 | 00:00:00 | 00:00:00 | |
| 9A1FER-10 | 2026-09-01 00:33:14 | 46.11278 | 15.41068 | 70° | 22km/h | 20178m | 5.9m/s | 0°C | 0% | 0hPa | 0V | 00:00:00 | 00:00:00 | 00:00:00 | |
| 9A1FER-3 | 2026-09-01 00:33:13 | 46.11275 | 15.41060 | 53° | 22km/h | 20172m | 6.3m/s | 0°C | 0% | 0hPa | 0V | 00:00:00 | 00:00:00 | 00:00:00 | |
| PETON7-10 | 2026-09-01 00:33:00 | 46.11227 | 15.40989 | 104° | 20km/h | 20099m | 7.6m/s | 0°C | 0% | 0hPa | 0V | 00:00:00 | 00:00:00 | 00:00:00 | |
| 9A1FER-10 | 2026-09-01 00:32:58 | 46.11229 | 15.40973 | 81° | 22km/h | 20088m | 4.7m/s | 0°C | 0% | 0hPa | 0V | 00:00:00 | 00:00:00 | 00:00:00 | |
| PETON7-10 | 2026-09-01 00:32:45 | 46.11181 | 15.40903 | 27° | 22km/h | 20016m | 5.3m/s | 0°C | 0% | 0hPa | 0V | 00:00:00 | 00:00:00 | 00:00:00 | |
| 9A1FER-3 | 2026-09-01 00:32:43 | 46.11174 | 15.40894 | 47° | 24km/h | 20005m | 5.2m/s | 0°C | 0% | 0hPa | 0V | 00:00:00 | 00:00:00 | 00:00:00 | |
| PETON7-10 | 2026-09-01 00:32:30 | 46.11106 | 15.40858 | 337° | 26km/h | 19934m | 4.2m/s | 0°C | 0% | 0hPa | 0V | 00:00:00 | 00:00:00 | 00:00:00 | |
| 9A1FER-3 | 2026-09-01 00:32:28 | 46.11097 | 15.40858 | 33° | 26km/h | 19923m | 5.5m/s | 0°C | 0% | 0hPa | 0V | 00:00:00 | 00:00:00 | 00:00:00 | |
| 9A1FER-10 | 2026-09-01 00:32:27 | 46.11092 | 15.40854 | 35° | 26km/h | 19916m | 6.4m/s | 0°C | 0% | 0hPa | 0V | 00:00:00 | 00:00:00 | 00:00:00 | |
| PETON7-10 | 2026-09-01 00:32:15 | 46.11022 | 15.40847 | 324° | 26km/h | 19854m | 5.2m/s | 0°C | 0% | 0hPa | 0V | 00:00:00 | 00:00:00 | 00:00:00 | |
| 9A1FER-3 | 2026-09-01 00:32:13 | 46.11015 | 15.40854 | 354° | 26km/h | 19844m | 4.9m/s | 0°C | 0% | 0hPa | 0V | 00:00:00 | 00:00:00 | 00:00:00 | |
| 9A1FER-10 | 2026-09-01 00:32:12 | 46.11010 | 15.40854 | 11° | 24km/h | 19840m | 3.5m/s | 0°C | 0% | 0hPa | 0V | 00:00:00 | 00:00:00 | 00:00:00 | |
| PETON7-10 | 2026-09-01 00:32:00 | 46.10936 | 15.40871 | 9° | 26km/h | 19783m | 3.4m/s | 0°C | 0% | 0hPa | 0V | 00:00:00 | 00:00:00 | 00:00:00 | |
| 9A1FER-3 | 2026-09-01 00:31:58 | 46.10921 | 15.40875 | 325° | 24km/h | 19773m | 5.1m/s | 0°C | 0% | 0hPa | 0V | 00:00:00 | 00:00:00 | 00:00:00 | |
| 9A1FER-10 | 2026-09-01 00:31:52 | 46.10893 | 15.40917 | 351° | 26km/h | 19743m | 5.5m/s | 0°C | 0% | 0hPa | 0V | 00:00:00 | 00:00:00 | 00:00:00 | |
| PETON7-10 | 2026-09-01 00:31:45 | 46.10862 | 15.40932 | 340° | 24km/h | 19708m | 4.3m/s | 0°C | 0% | 0hPa | 0V | 00:00:00 | 00:00:00 | 00:00:00 | |
| 9A1FER-3 | 2026-09-01 00:31:43 | 46.10851 | 15.40940 | 330° | 22km/h | 19698m | 4.4m/s | 0°C | 0% | 0hPa | 0V | 00:00:00 | 00:00:00 | 00:00:00 | |
| 9A1FER-10 | 2026-09-01 00:31:37 | 46.10829 | 15.40981 | 311° | 18km/h | 19671m | 2.7m/s | 0°C | 0% | 0hPa | 0V | 00:00:00 | 00:00:00 | 00:00:00 | |
| PETON7-10 | 2026-09-01 00:31:29 | 46.10806 | 15.41034 | 321° | 16km/h | 19632m | 4.5m/s | 0°C | 0% | 0hPa | 0V | 00:00:00 | 00:00:00 | 00:00:00 | |
| 9A1FER-3 | 2026-09-01 00:31:28 | 46.10803 | 15.41039 | 321° | 16km/h | 19627m | 5.4m/s | 0°C | 0% | 0hPa | 0V | 00:00:00 | 00:00:00 | 00:00:00 | |
| PETON7-10 | 2026-09-01 00:31:14 | 46.10767 | 15.41103 | 325° | 11km/h | 19559m | 3.9m/s | 0°C | 0% | 0hPa | 0V | 00:00:00 | 00:00:00 | 00:00:00 | |
| 9A1FER-3 | 2026-09-01 00:31:13 | 46.10766 | 15.41106 | 291° | 15km/h | 19554m | 5.9m/s | 0°C | 0% | 0hPa | 0V | 00:00:00 | 00:00:00 | 00:00:00 | |
| PETON7-10 | 2026-09-01 00:30:59 | 46.10736 | 15.41128 | 20° | 18km/h | 19483m | 3.9m/s | 0°C | 0% | 0hPa | 0V | 00:00:00 | 00:00:00 | 00:00:00 | |
| 9A1FER-3 | 2026-09-01 00:30:58 | 46.10732 | 15.41127 | 350° | 16km/h | 19479m | 4.7m/s | 0°C | 0% | 0hPa | 0V | 00:00:00 | 00:00:00 | 00:00:00 | |
| 9A1FER-10 | 2026-09-01 00:30:57 | 46.10730 | 15.41130 | 297° | 20km/h | 19473m | 6.9m/s | 0°C | 0% | 0hPa | 0V | 00:00:00 | 00:00:00 | 00:00:00 | |
| 9A1FER-3 | 2026-09-01 00:30:43 | 46.10685 | 15.41114 | 2° | 20km/h | 19400m | 5.3m/s | 0°C | 0% | 0hPa | 0V | 00:00:00 | 00:00:00 | 00:00:00 | |
| 9A1FER-3 | 2026-09-01 00:30:28 | 46.10618 | 15.41064 | 22° | 20km/h | 19321m | 6.5m/s | 0°C | 0% | 0hPa | 0V | 00:00:00 | 00:00:00 | 00:00:00 | |
| PETON7-10 | 2026-09-01 00:30:27 | 46.10615 | 15.41063 | 357° | 22km/h | 19315m | 3.9m/s | 0°C | 0% | 0hPa | 0V | 00:00:00 | 00:00:00 | 00:00:00 | |
| 9A1FER-3 | 2026-09-01 00:30:13 | 46.10563 | 15.41000 | 61° | 18km/h | 19241m | 5.1m/s | 0°C | 0% | 0hPa | 0V | 00:00:00 | 00:00:00 | 00:00:00 | |
| PETON7-10 | 2026-09-01 00:30:12 | 46.10559 | 15.40994 | 37° | 16km/h | 19236m | 5.5m/s | 0°C | 0% | 0hPa | 0V | 00:00:00 | 00:00:00 | 00:00:00 | |
| 9A1FER-10 | 2026-09-01 00:30:11 | 46.10555 | 15.40990 | 33° | 18km/h | 19230m | 6.0m/s | 0°C | 0% | 0hPa | 0V | 00:00:00 | 00:00:00 | 00:00:00 | |
| 9A1FER-3 | 2026-09-01 00:29:58 | 46.10547 | 15.40919 | 107° | 20km/h | 19157m | 6.3m/s | 0°C | 0% | 0hPa | 0V | 00:00:00 | 00:00:00 | 00:00:00 | |
| PETON7-10 | 2026-09-01 00:29:57 | 46.10547 | 15.40912 | 99° | 20km/h | 19151m | 5.6m/s | 0°C | 0% | 0hPa | 0V | 00:00:00 | 00:00:00 | 00:00:00 | |
| 9A1FER-10 | 2026-09-01 00:29:54 | 46.10551 | 15.40889 | 81° | 18km/h | 19135m | 4.3m/s | 0°C | 0% | 0hPa | 0V | 00:00:00 | 00:00:00 | 00:00:00 | |
| 9A1FER-3 | 2026-09-01 00:29:43 | 46.10547 | 15.40816 | 111° | 16km/h | 19075m | 6.1m/s | 0°C | 0% | 0hPa | 0V | 00:00:00 | 00:00:00 | 00:00:00 | |
| PETON7-10 | 2026-09-01 00:29:41 | 46.10548 | 15.40805 | 97° | 16km/h | 19063m | 4.7m/s | 0°C | 0% | 0hPa | 0V | 00:00:00 | 00:00:00 | 00:00:00 | |
| 9A1FER-10 | 2026-09-01 00:29:39 | 46.10549 | 15.40792 | 83° | 18km/h | 19052m | 5.0m/s | 0°C | 0% | 0hPa | 0V | 00:00:00 | 00:00:00 | 00:00:00 | |
| 9A1FER-3 | 2026-09-01 00:29:28 | 46.10537 | 15.40738 | 42° | 20km/h | 18992m | 3.7m/s | 0°C | 0% | 0hPa | 0V | 00:00:00 | 00:00:00 | 00:00:00 | |
| PETON7-10 | 2026-09-01 00:29:25 | 46.10543 | 15.40723 | 131° | 24km/h | 18976m | 4.8m/s | 0°C | 0% | 0hPa | 0V | 00:00:00 | 00:00:00 | 00:00:00 | |
| 9A1FER-10 | 2026-09-01 00:29:21 | 46.10532 | 15.40698 | 50° | 24km/h | 18955m | 2.9m/s | 0°C | 0% | 0hPa | 0V | 00:00:00 | 00:00:00 | 00:00:00 | |
| PETON7-10 | 2026-09-01 00:29:09 | 46.10512 | 15.40639 | 132° | 20km/h | 18894m | 1.8m/s | 0°C | 0% | 0hPa | 0V | 00:00:00 | 00:00:00 | 00:00:00 | |
| 9A1FER-10 | 2026-09-01 00:29:05 | 46.10498 | 15.40608 | 33° | 33km/h | 18873m | 5.1m/s | 0°C | 0% | 0hPa | 0V | 00:00:00 | 00:00:00 | 00:00:00 | |
| 9A1FER-3 | 2026-09-01 00:28:58 | 46.10481 | 15.40570 | 54° | 31km/h | 18836m | 6.6m/s | 0°C | 0% | 0hPa | 0V | 00:00:00 | 00:00:00 | 00:00:00 | |
| PETON7-10 | 2026-09-01 00:28:53 | 46.10459 | 15.40537 | 57° | 33km/h | 18810m | 5.9m/s | 0°C | 0% | 0hPa | 0V | 00:00:00 | 00:00:00 | 00:00:00 | |
| 9A1FER-10 | 2026-09-01 00:28:44 | 46.10427 | 15.40442 | 52° | 38km/h | 18764m | 4.4m/s | 0°C | 0% | 0hPa | 0V | 00:00:00 | 00:00:00 | 00:00:00 | |
| 9A1FER-3 | 2026-09-01 00:28:43 | 46.10422 | 15.40430 | 64° | 40km/h | 18760m | 5.3m/s | 0°C | 0% | 0hPa | 0V | 00:00:00 | 00:00:00 | 00:00:00 | |
| PETON7-10 | 2026-09-01 00:28:37 | 46.10398 | 15.40355 | 58° | 40km/h | 18731m | 4.0m/s | 0°C | 0% | 0hPa | 0V | 00:00:00 | 00:00:00 | 00:00:00 | |
| 9A1FER-10 | 2026-09-01 00:28:29 | 46.10348 | 15.40262 | 33° | 38km/h | 18693m | 4.4m/s | 0°C | 0% | 0hPa | 0V | 00:00:00 | 00:00:00 | 00:00:00 | |
| 9A1FER-3 | 2026-09-01 00:28:28 | 46.10342 | 15.40254 | 51° | 40km/h | 18689m | 5.0m/s | 0°C | 0% | 0hPa | 0V | 00:00:00 | 00:00:00 | 00:00:00 | |
| PETON7-10 | 2026-09-01 00:28:22 | 46.10306 | 15.40177 | 63° | 37km/h | 18662m | 3.3m/s | 0°C | 0% | 0hPa | 0V | 00:00:00 | 00:00:00 | 00:00:00 | |
| 9A1FER-10 | 2026-09-01 00:28:14 | 46.10259 | 15.40092 | 53° | 35km/h | 18624m | 5.7m/s | 0°C | 0% | 0hPa | 0V | 00:00:00 | 00:00:00 | 00:00:00 | |
| 9A1FER-3 | 2026-09-01 00:28:13 | 46.10254 | 15.40083 | 48° | 33km/h | 18619m | 4.5m/s | 0°C | 0% | 0hPa | 0V | 00:00:00 | 00:00:00 | 00:00:00 | |
| PETON7-10 | 2026-09-01 00:28:07 | 46.10224 | 15.40022 | 70° | 31km/h | 18586m | 3.2m/s | 0°C | 0% | 0hPa | 0V | 00:00:00 | 00:00:00 | 00:00:00 | |
| 9A1FER-10 | 2026-09-01 00:27:59 | 46.10197 | 15.39939 | 63° | 31km/h | 18551m | 5.1m/s | 0°C | 0% | 0hPa | 0V | 00:00:00 | 00:00:00 | 00:00:00 | |
| 9A1FER-3 | 2026-09-01 00:27:58 | 46.10193 | 15.39928 | 60° | 29km/h | 18546m | 3.9m/s | 0°C | 0% | 0hPa | 0V | 00:00:00 | 00:00:00 | 00:00:00 | |
| PETON7-10 | 2026-09-01 00:27:51 | 46.10180 | 15.39856 | 87° | 27km/h | 18512m | 3.9m/s | 0°C | 0% | 0hPa | 0V | 00:00:00 | 00:00:00 | 00:00:00 | |
| 9A1FER-10 | 2026-09-01 00:27:44 | 46.10171 | 15.39786 | 86° | 27km/h | 18479m | 5.0m/s | 0°C | 0% | 0hPa | 0V | 00:00:00 | 00:00:00 | 00:00:00 | |
| 9A1FER-3 | 2026-09-01 00:27:43 | 46.10170 | 15.39775 | 84° | 27km/h | 18473m | 6.1m/s | 0°C | 0% | 0hPa | 0V | 00:00:00 | 00:00:00 | 00:00:00 | |
| PETON7-10 | 2026-09-01 00:27:36 | 46.10165 | 15.39714 | 99° | 27km/h | 18438m | 5.4m/s | 0°C | 0% | 0hPa | 0V | 00:00:00 | 00:00:00 | 00:00:00 | |
| 9A1FER-10 | 2026-09-01 00:27:29 | 46.10153 | 15.39647 | 94° | 26km/h | 18404m | 7.2m/s | 0°C | 0% | 0hPa | 0V | 00:00:00 | 00:00:00 | 00:00:00 | |
| 9A1FER-3 | 2026-09-01 00:27:28 | 46.10154 | 15.39636 | 105° | 27km/h | 18399m | 3.1m/s | 0°C | 0% | 0hPa | 0V | 00:00:00 | 00:00:00 | 00:00:00 | |
| PETON7-10 | 2026-09-01 00:27:21 | 46.10146 | 15.39570 | 80° | 27km/h | 18366m | 5.5m/s | 0°C | 0% | 0hPa | 0V | 00:00:00 | 00:00:00 | 00:00:00 | |
| 9A1FER-10 | 2026-09-01 00:27:14 | 46.10135 | 15.39511 | 77° | 27km/h | 18333m | 3.3m/s | 0°C | 0% | 0hPa | 0V | 00:00:00 | 00:00:00 | 00:00:00 | |
| 9A1FER-3 | 2026-09-01 00:27:13 | 46.10132 | 15.39497 | 71° | 26km/h | 18328m | 5.2m/s | 0°C | 0% | 0hPa | 0V | 00:00:00 | 00:00:00 | 00:00:00 | |
| PETON7-10 | 2026-09-01 00:27:05 | 46.10112 | 15.39428 | 85° | 27km/h | 18289m | 4.4m/s | 0°C | 0% | 0hPa | 0V | 00:00:00 | 00:00:00 | 00:00:00 | |
| 9A1FER-10 | 2026-09-01 00:26:59 | 46.10094 | 15.39382 | 53° | 27km/h | 18261m | 6.6m/s | 0°C | 0% | 0hPa | 0V | 00:00:00 | 00:00:00 | 00:00:00 | |
| 9A1FER-3 | 2026-09-01 00:26:58 | 46.10089 | 15.39372 | 61° | 29km/h | 18256m | 4.4m/s | 0°C | 0% | 0hPa | 0V | 00:00:00 | 00:00:00 | 00:00:00 | |
| PETON7-10 | 2026-09-01 00:26:48 | 46.10051 | 15.39285 | 60° | 29km/h | 18210m | 3.8m/s | 0°C | 0% | 0hPa | 0V | 00:00:00 | 00:00:00 | 00:00:00 | |
| 9A1FER-10 | 2026-09-01 00:26:44 | 46.10034 | 15.39253 | 34° | 27km/h | 18189m | 4.5m/s | 0°C | 0% | 0hPa | 0V | 00:00:00 | 00:00:00 | 00:00:00 | |
| 9A1FER-3 | 2026-09-01 00:26:43 | 46.10027 | 15.39246 | 43° | 27km/h | 18185m | 4.4m/s | 0°C | 0% | 0hPa | 0V | 00:00:00 | 00:00:00 | 00:00:00 | |
| PETON7-10 | 2026-09-01 00:26:33 | 46.09982 | 15.39169 | 67° | 27km/h | 18135m | 6.5m/s | 0°C | 0% | 0hPa | 0V | 00:00:00 | 00:00:00 | 00:00:00 | |
| 9A1FER-3 | 2026-09-01 00:26:28 | 46.09958 | 15.39143 | 45° | 24km/h | 18110m | 5.0m/s | 0°C | 0% | 0hPa | 0V | 00:00:00 | 00:00:00 | 00:00:00 | |
| 9A1FER-10 | 2026-09-01 00:26:27 | 46.09953 | 15.39137 | 48° | 26km/h | 18104m | 7.1m/s | 0°C | 0% | 0hPa | 0V | 00:00:00 | 00:00:00 | 00:00:00 | |
| PETON7-10 | 2026-09-01 00:26:18 | 46.09914 | 15.39079 | 72° | 22km/h | 18058m | 4.5m/s | 0°C | 0% | 0hPa | 0V | 00:00:00 | 00:00:00 | 00:00:00 | |
| 9A1FER-3 | 2026-09-01 00:26:13 | 46.09895 | 15.39051 | 35° | 22km/h | 18034m | 4.6m/s | 0°C | 0% | 0hPa | 0V | 00:00:00 | 00:00:00 | 00:00:00 | |
| PETON7-10 | 2026-09-01 00:26:01 | 46.09849 | 15.38979 | 68° | 24km/h | 17970m | 3.5m/s | 0°C | 0% | 0hPa | 0V | 00:00:00 | 00:00:00 | 00:00:00 | |
| 9A1FER-3 | 2026-09-01 00:25:58 | 46.09841 | 15.38961 | 36° | 22km/h | 17954m | 7.4m/s | 0°C | 0% | 0hPa | 0V | 00:00:00 | 00:00:00 | 00:00:00 | |
| PETON7-10 | 2026-09-01 00:25:46 | 46.09799 | 15.38890 | 67° | 20km/h | 17887m | 6.5m/s | 0°C | 0% | 0hPa | 0V | 00:00:00 | 00:00:00 | 00:00:00 | |
| 9A1FER-3 | 2026-09-01 00:25:43 | 46.09794 | 15.38867 | 64° | 24km/h | 17870m | 5.4m/s | 0°C | 0% | 0hPa | 0V | 00:00:00 | 00:00:00 | 00:00:00 | |
| PETON7-10 | 2026-09-01 00:25:31 | 46.09760 | 15.38793 | 58° | 24km/h | 17807m | 7.0m/s | 0°C | 0% | 0hPa | 0V | 00:00:00 | 00:00:00 | 00:00:00 | |
| 9A1FER-3 | 2026-09-01 00:25:28 | 46.09753 | 15.38766 | 109° | 24km/h | 17789m | 7.5m/s | 0°C | 0% | 0hPa | 0V | 00:00:00 | 00:00:00 | 00:00:00 | |
| PETON7-10 | 2026-09-01 00:25:16 | 46.09735 | 15.38680 | 73° | 22km/h | 17722m | 6.2m/s | 0°C | 0% | 0hPa | 0V | 00:00:00 | 00:00:00 | 00:00:00 | |
| 9A1FER-3 | 2026-09-01 00:25:13 | 46.09727 | 15.38654 | 82° | 24km/h | 17706m | 6.0m/s | 0°C | 0% | 0hPa | 0V | 00:00:00 | 00:00:00 | 00:00:00 | |
| PETON7-10 | 2026-09-01 00:25:01 | 46.09717 | 15.38554 | 78° | 27km/h | 17640m | 4.7m/s | 0°C | 0% | 0hPa | 0V | 00:00:00 | 00:00:00 | 00:00:00 | |
| 9A1FER-3 | 2026-09-01 00:24:58 | 46.09719 | 15.38527 | 112° | 27km/h | 17623m | 6.7m/s | 0°C | 0% | 0hPa | 0V | 00:00:00 | 00:00:00 | 00:00:00 | |
| 9A1FER-10 | 2026-09-01 00:24:46 | 46.09724 | 15.38421 | 115° | 26km/h | 17557m | 4.5m/s | 0°C | 0% | 0hPa | 0V | 00:00:00 | 00:00:00 | 00:00:00 | |
| 9A1FER-3 | 2026-09-01 00:24:43 | 46.09731 | 15.38392 | 94° | 26km/h | 17542m | 6.2m/s | 0°C | 0% | 0hPa | 0V | 00:00:00 | 00:00:00 | 00:00:00 | |
| PETON7-10 | 2026-09-01 00:24:37 | 46.09742 | 15.38340 | 121° | 27km/h | 17509m | 4.3m/s | 0°C | 0% | 0hPa | 0V | 00:00:00 | 00:00:00 | 00:00:00 | |
| 9A1FER-10 | 2026-09-01 00:24:31 | 46.09751 | 15.38291 | 125° | 26km/h | 17477m | 4.8m/s | 0°C | 0% | 0hPa | 0V | 00:00:00 | 00:00:00 | 00:00:00 | |
| 9A1FER-3 | 2026-09-01 00:24:28 | 46.09765 | 15.38267 | 127° | 26km/h | 17462m | 5.8m/s | 0°C | 0% | 0hPa | 0V | 00:00:00 | 00:00:00 | 00:00:00 | |
| PETON7-10 | 2026-09-01 00:24:19 | 46.09788 | 15.38194 | 114° | 29km/h | 17416m | 3.4m/s | 0°C | 0% | 0hPa | 0V | 00:00:00 | 00:00:00 | 00:00:00 | |
| 9A1FER-10 | 2026-09-01 00:24:16 | 46.09793 | 15.38167 | 105° | 31km/h | 17401m | 4.3m/s | 0°C | 0% | 0hPa | 0V | 00:00:00 | 00:00:00 | 00:00:00 | |
| 9A1FER-3 | 2026-09-01 00:24:13 | 46.09803 | 15.38140 | 143° | 31km/h | 17385m | 4.7m/s | 0°C | 0% | 0hPa | 0V | 00:00:00 | 00:00:00 | 00:00:00 | |
| PETON7-10 | 2026-09-01 00:24:02 | 46.09852 | 15.38046 | 140° | 27km/h | 17331m | 5.0m/s | 0°C | 0% | 0hPa | 0V | 00:00:00 | 00:00:00 | 00:00:00 | |
| 9A1FER-10 | 2026-09-01 00:24:01 | 46.09857 | 15.38037 | 122° | 27km/h | 17326m | 4.2m/s | 0°C | 0% | 0hPa | 0V | 00:00:00 | 00:00:00 | 00:00:00 | |
| PETON7-10 | 2026-09-01 00:23:47 | 46.09881 | 15.37904 | 107° | 26km/h | 17262m | 2.7m/s | 0°C | 0% | 0hPa | 0V | 00:00:00 | 00:00:00 | 00:00:00 | |
| 9A1FER-10 | 2026-09-01 00:23:46 | 46.09883 | 15.37897 | 104° | 26km/h | 17258m | 4.4m/s | 0°C | 0% | 0hPa | 0V | 00:00:00 | 00:00:00 | 00:00:00 | |
| 9A1FER-3 | 2026-09-01 00:23:43 | 46.09882 | 15.37868 | 60° | 24km/h | 17244m | 5.6m/s | 0°C | 0% | 0hPa | 0V | 00:00:00 | 00:00:00 | 00:00:00 | |
| 9A1FER-10 | 2026-09-01 00:23:31 | 46.09873 | 15.37766 | 105° | 27km/h | 17198m | 4.1m/s | 0°C | 0% | 0hPa | 0V | 00:00:00 | 00:00:00 | 00:00:00 | |
| PETON7-10 | 2026-09-01 00:23:30 | 46.09874 | 15.37758 | 89° | 27km/h | 17194m | 4.1m/s | 0°C | 0% | 0hPa | 0V | 00:00:00 | 00:00:00 | 00:00:00 | |
| 9A1FER-3 | 2026-09-01 00:23:28 | 46.09873 | 15.37740 | 81° | 29km/h | 17185m | 4.8m/s | 0°C | 0% | 0hPa | 0V | 00:00:00 | 00:00:00 | 00:00:00 | |
| 9A1FER-10 | 2026-09-01 00:23:16 | 46.09873 | 15.37614 | 86° | 37km/h | 17139m | 3.4m/s | 0°C | 0% | 0hPa | 0V | 00:00:00 | 00:00:00 | 00:00:00 | |
| 9A1FER-3 | 2026-09-01 00:23:13 | 46.09870 | 15.37582 | 84° | 38km/h | 17127m | 4.9m/s | 0°C | 0% | 0hPa | 0V | 00:00:00 | 00:00:00 | 00:00:00 | |
| PETON7-10 | 2026-09-01 00:23:12 | 46.09870 | 15.37567 | 92° | 37km/h | 17123m | 3.3m/s | 0°C | 0% | 0hPa | 0V | 00:00:00 | 00:00:00 | 00:00:00 | |
| 9A1FER-10 | 2026-09-01 00:23:01 | 46.09874 | 15.37415 | 92° | 40km/h | 17076m | 4.4m/s | 0°C | 0% | 0hPa | 0V | 00:00:00 | 00:00:00 | 00:00:00 | |
| 9A1FER-3 | 2026-09-01 00:22:58 | 46.09873 | 15.37379 | 91° | 46km/h | 17062m | 4.8m/s | 0°C | 0% | 0hPa | 0V | 00:00:00 | 00:00:00 | 00:00:00 | |
| PETON7-10 | 2026-09-01 00:22:56 | 46.09875 | 15.37351 | 102° | 46km/h | 17052m | 4.4m/s | 0°C | 0% | 0hPa | 0V | 00:00:00 | 00:00:00 | 00:00:00 | |
| 9A1FER-10 | 2026-09-01 00:22:46 | 46.09877 | 15.37190 | 81° | 57km/h | 17004m | 7.7m/s | 0°C | 0% | 0hPa | 0V | 00:00:00 | 00:00:00 | 00:00:00 | |
| 9A1FER-3 | 2026-09-01 00:22:43 | 46.09871 | 15.37130 | 96° | 57km/h | 16989m | 6.8m/s | 0°C | 0% | 0hPa | 0V | 00:00:00 | 00:00:00 | 00:00:00 | |
| PETON7-10 | 2026-09-01 00:22:41 | 46.09876 | 15.37097 | 101° | 58km/h | 16979m | 5.0m/s | 0°C | 0% | 0hPa | 0V | 00:00:00 | 00:00:00 | 00:00:00 | |
| 9A1FER-10 | 2026-09-01 00:22:31 | 46.09871 | 15.36885 | 88° | 64km/h | 16930m | 5.2m/s | 0°C | 0% | 0hPa | 0V | 00:00:00 | 00:00:00 | 00:00:00 | |
| 9A1FER-3 | 2026-09-01 00:22:28 | 46.09861 | 15.36824 | 81° | 66km/h | 16917m | 4.7m/s | 0°C | 0% | 0hPa | 0V | 00:00:00 | 00:00:00 | 00:00:00 | |
| PETON7-10 | 2026-09-01 00:22:24 | 46.09860 | 15.36724 | 87° | 62km/h | 16898m | 4.9m/s | 0°C | 0% | 0hPa | 0V | 00:00:00 | 00:00:00 | 00:00:00 | |
| 9A1FER-10 | 2026-09-01 00:22:16 | 46.09840 | 15.36540 | 81° | 62km/h | 16862m | 3.0m/s | 0°C | 0% | 0hPa | 0V | 00:00:00 | 00:00:00 | 00:00:00 | |
| 9A1FER-3 | 2026-09-01 00:22:13 | 46.09829 | 15.36473 | 75° | 64km/h | 16848m | 6.8m/s | 0°C | 0% | 0hPa | 0V | 00:00:00 | 00:00:00 | 00:00:00 | |
| PETON7-10 | 2026-09-01 00:22:09 | 46.09808 | 15.36391 | 70° | 66km/h | 16828m | 6.1m/s | 0°C | 0% | 0hPa | 0V | 00:00:00 | 00:00:00 | 00:00:00 | |
| 9A1FER-10 | 2026-09-01 00:22:01 | 46.09765 | 15.36217 | 58° | 68km/h | 16788m | 7.3m/s | 0°C | 0% | 0hPa | 0V | 00:00:00 | 00:00:00 | 00:00:00 | |
| 9A1FER-3 | 2026-09-01 00:21:58 | 46.09735 | 15.36151 | 68° | 66km/h | 16773m | 4.2m/s | 0°C | 0% | 0hPa | 0V | 00:00:00 | 00:00:00 | 00:00:00 | |
| PETON7-10 | 2026-09-01 00:21:54 | 46.09712 | 15.36069 | 56° | 68km/h | 16755m | 4.0m/s | 0°C | 0% | 0hPa | 0V | 00:00:00 | 00:00:00 | 00:00:00 | |
| 9A1FER-10 | 2026-09-01 00:21:46 | 46.09644 | 15.35900 | 56° | 64km/h | 16716m | 4.6m/s | 0°C | 0% | 0hPa | 0V | 00:00:00 | 00:00:00 | 00:00:00 | |
| 9A1FER-3 | 2026-09-01 00:21:43 | 46.09613 | 15.35843 | 51° | 62km/h | 16701m | 4.4m/s | 0°C | 0% | 0hPa | 0V | 00:00:00 | 00:00:00 | 00:00:00 | |
| PETON7-10 | 2026-09-01 00:21:39 | 46.09575 | 15.35764 | 66° | 58km/h | 16680m | 7.4m/s | 0°C | 0% | 0hPa | 0V | 00:00:00 | 00:00:00 | 00:00:00 | |
| 9A1FER-10 | 2026-09-01 00:21:31 | 46.09503 | 15.35622 | 64° | 53km/h | 16638m | 8.2m/s | 0°C | 0% | 0hPa | 0V | 00:00:00 | 00:00:00 | 00:00:00 | |
| 9A1FER-3 | 2026-09-01 00:21:28 | 46.09481 | 15.35570 | 54° | 51km/h | 16620m | 4.5m/s | 0°C | 0% | 0hPa | 0V | 00:00:00 | 00:00:00 | 00:00:00 | |
| PETON7-10 | 2026-09-01 00:21:24 | 46.09450 | 15.35505 | 58° | 51km/h | 16600m | 4.9m/s | 0°C | 0% | 0hPa | 0V | 00:00:00 | 00:00:00 | 00:00:00 | |
| 9A1FER-10 | 2026-09-01 00:21:19 | 46.09398 | 15.35384 | 67° | 46km/h | 16556m | 5.7m/s | 0°C | 0% | 0hPa | 0V | 00:00:00 | 00:00:00 | 00:00:00 | |
| 9A1FER-3 | 2026-09-01 00:21:16 | 46.09384 | 15.35338 | 67° | 44km/h | 16540m | 5.5m/s | 0°C | 0% | 0hPa | 0V | 00:00:00 | 00:00:00 | 00:00:00 | |
| PETON7-10 | 2026-09-01 00:21:08 | 46.09362 | 15.35260 | 74° | 42km/h | 16514m | 3.6m/s | 0°C | 0% | 0hPa | 0V | 00:00:00 | 00:00:00 | 00:00:00 | |
| 9A1FER-10 | 2026-09-01 00:21:01 | 46.09329 | 15.35162 | 73° | 44km/h | 16478m | 5.0m/s | 0°C | 0% | 0hPa | 0V | 00:00:00 | 00:00:00 | 00:00:00 | |
| 9A1FER-3 | 2026-09-01 00:20:58 | 46.09322 | 15.35118 | 73° | 42km/h | 16461m | 6.3m/s | 0°C | 0% | 0hPa | 0V | 00:00:00 | 00:00:00 | 00:00:00 | |
| PETON7-10 | 2026-09-01 00:20:53 | 46.09302 | 15.35045 | 72° | 38km/h | 16435m | 7.1m/s | 0°C | 0% | 0hPa | 0V | 00:00:00 | 00:00:00 | 00:00:00 | |
| 9A1FER-10 | 2026-09-01 00:20:46 | 46.09275 | 15.34943 | 75° | 40km/h | 16401m | 5.8m/s | 0°C | 0% | 0hPa | 0V | 00:00:00 | 00:00:00 | 00:00:00 | |
| 9A1FER-3 | 2026-09-01 00:20:43 | 46.09269 | 15.34901 | 63° | 40km/h | 16384m | 5.1m/s | 0°C | 0% | 0hPa | 0V | 00:00:00 | 00:00:00 | 00:00:00 | |
| PETON7-10 | 2026-09-01 00:20:37 | 46.09252 | 15.34815 | 82° | 38km/h | 16357m | 4.4m/s | 0°C | 0% | 0hPa | 0V | 00:00:00 | 00:00:00 | 00:00:00 | |
| 9A1FER-10 | 2026-09-01 00:20:31 | 46.09238 | 15.34736 | 87° | 40km/h | 16326m | 5.6m/s | 0°C | 0% | 0hPa | 0V | 00:00:00 | 00:00:00 | 00:00:00 | |
| 9A1FER-3 | 2026-09-01 00:20:28 | 46.09233 | 15.34694 | 70° | 44km/h | 16311m | 4.7m/s | 0°C | 0% | 0hPa | 0V | 00:00:00 | 00:00:00 | 00:00:00 | |
| PETON7-10 | 2026-09-01 00:20:22 | 46.09219 | 15.34606 | 83° | 44km/h | 16280m | 6.8m/s | 0°C | 0% | 0hPa | 0V | 00:00:00 | 00:00:00 | 00:00:00 | |
| 9A1FER-10 | 2026-09-01 00:20:16 | 46.09211 | 15.34516 | 95° | 44km/h | 16252m | 5.9m/s | 0°C | 0% | 0hPa | 0V | 00:00:00 | 00:00:00 | 00:00:00 | |
| 9A1FER-3 | 2026-09-01 00:20:13 | 46.09212 | 15.34460 | 88° | 44km/h | 16238m | 4.9m/s | 0°C | 0% | 0hPa | 0V | 00:00:00 | 00:00:00 | 00:00:00 | |
| PETON7-10 | 2026-09-01 00:20:07 | 46.09202 | 15.34380 | 110° | 47km/h | 16206m | 3.9m/s | 0°C | 0% | 0hPa | 0V | 00:00:00 | 00:00:00 | 00:00:00 | |
| 9A1FER-10 | 2026-09-01 00:20:01 | 46.09204 | 15.34281 | 103° | 51km/h | 16176m | 3.9m/s | 0°C | 0% | 0hPa | 0V | 00:00:00 | 00:00:00 | 00:00:00 | |
| 9A1FER-3 | 2026-09-01 00:19:58 | 46.09205 | 15.34225 | 82° | 51km/h | 16160m | 5.5m/s | 0°C | 0% | 0hPa | 0V | 00:00:00 | 00:00:00 | 00:00:00 | |
| PETON7-10 | 2026-09-01 00:19:52 | 46.09205 | 15.34127 | 81° | 53km/h | 16125m | 5.1m/s | 0°C | 0% | 0hPa | 0V | 00:00:00 | 00:00:00 | 00:00:00 | |
| 9A1FER-10 | 2026-09-01 00:19:46 | 46.09209 | 15.34008 | 84° | 55km/h | 16096m | 5.2m/s | 0°C | 0% | 0hPa | 0V | 00:00:00 | 00:00:00 | 00:00:00 | |
| 9A1FER-3 | 2026-09-01 00:19:43 | 46.09213 | 15.33954 | 98° | 58km/h | 16075m | 5.2m/s | 0°C | 0% | 0hPa | 0V | 00:00:00 | 00:00:00 | 00:00:00 | |
| PETON7-10 | 2026-09-01 00:19:37 | 46.09217 | 15.33843 | 88° | 62km/h | 16046m | 6.5m/s | 0°C | 0% | 0hPa | 0V | 00:00:00 | 00:00:00 | 00:00:00 | |
| 9A1FER-10 | 2026-09-01 00:19:31 | 46.09220 | 15.33707 | 82° | 66km/h | 16018m | 3.6m/s | 0°C | 0% | 0hPa | 0V | 00:00:00 | 00:00:00 | 00:00:00 | |
| 9A1FER-3 | 2026-09-01 00:19:28 | 46.09216 | 15.33632 | 91° | 64km/h | 16005m | 4.8m/s | 0°C | 0% | 0hPa | 0V | 00:00:00 | 00:00:00 | 00:00:00 | |
| PETON7-10 | 2026-09-01 00:19:20 | 46.09215 | 15.33453 | 97° | 66km/h | 15971m | 5.6m/s | 0°C | 0% | 0hPa | 0V | 00:00:00 | 00:00:00 | 00:00:00 | |
| 9A1FER-10 | 2026-09-01 00:19:16 | 46.09225 | 15.33354 | 85° | 64km/h | 15953m | 6.0m/s | 0°C | 0% | 0hPa | 0V | 00:00:00 | 00:00:00 | 00:00:00 | |
| 9A1FER-3 | 2026-09-01 00:19:13 | 46.09219 | 15.33282 | 88° | 62km/h | 15938m | 5.4m/s | 0°C | 0% | 0hPa | 0V | 00:00:00 | 00:00:00 | 00:00:00 | |
| PETON7-10 | 2026-09-01 00:19:04 | 46.09220 | 15.33078 | 94° | 66km/h | 15898m | 4.5m/s | 0°C | 0% | 0hPa | 0V | 00:00:00 | 00:00:00 | 00:00:00 | |
| 9A1FER-10 | 2026-09-01 00:19:01 | 46.09223 | 15.33003 | 94° | 68km/h | 15884m | 6.5m/s | 0°C | 0% | 0hPa | 0V | 00:00:00 | 00:00:00 | 00:00:00 | |
| 9A1FER-3 | 2026-09-01 00:18:58 | 46.09225 | 15.32941 | 92° | 69km/h | 15870m | 3.0m/s | 0°C | 0% | 0hPa | 0V | 00:00:00 | 00:00:00 | 00:00:00 | |
| PETON7-10 | 2026-09-01 00:18:49 | 46.09238 | 15.32717 | 90° | 75km/h | 15822m | 5.1m/s | 0°C | 0% | 0hPa | 0V | 00:00:00 | 00:00:00 | 00:00:00 | |
| 9A1FER-10 | 2026-09-01 00:18:47 | 46.09238 | 15.32630 | 95° | 71km/h | 15806m | 5.8m/s | 0°C | 0% | 0hPa | 0V | 00:00:00 | 00:00:00 | 00:00:00 | |
| 9A1FER-3 | 2026-09-01 00:18:43 | 46.09244 | 15.32561 | 98° | 75km/h | 15792m | 5.2m/s | 0°C | 0% | 0hPa | 0V | 00:00:00 | 00:00:00 | 00:00:00 | |
| PETON7-10 | 2026-09-01 00:18:34 | 46.09259 | 15.32327 | 90° | 75km/h | 15746m | 6.9m/s | 0°C | 0% | 0hPa | 0V | 00:00:00 | 00:00:00 | 00:00:00 | |
| 9A1FER-10 | 2026-09-01 00:18:31 | 46.09256 | 15.32242 | 91° | 75km/h | 15728m | 5.0m/s | 0°C | 0% | 0hPa | 0V | 00:00:00 | 00:00:00 | 00:00:00 | |
| 9A1FER-3 | 2026-09-01 00:18:28 | 46.09265 | 15.32155 | 100° | 75km/h | 15713m | 4.6m/s | 0°C | 0% | 0hPa | 0V | 00:00:00 | 00:00:00 | 00:00:00 | |
| PETON7-10 | 2026-09-01 00:18:16 | 46.09263 | 15.31832 | 86° | 77km/h | 15649m | 4.9m/s | 0°C | 0% | 0hPa | 0V | 00:00:00 | 00:00:00 | 00:00:00 | |
| 9A1FER-3 | 2026-09-01 00:18:13 | 46.09264 | 15.31750 | 98° | 78km/h | 15633m | 4.2m/s | 0°C | 0% | 0hPa | 0V | 00:00:00 | 00:00:00 | 00:00:00 | |
| PETON7-10 | 2026-09-01 00:18:01 | 46.09249 | 15.31411 | 84° | 84km/h | 15569m | 3.4m/s | 0°C | 0% | 0hPa | 0V | 00:00:00 | 00:00:00 | 00:00:00 | |
| 9A1FER-10 | 2026-09-01 00:18:00 | 46.09247 | 15.31380 | 86° | 80km/h | 15564m | 6.2m/s | 0°C | 0% | 0hPa | 0V | 00:00:00 | 00:00:00 | 00:00:00 | |
| 9A1FER-3 | 2026-09-01 00:17:58 | 46.09242 | 15.31332 | 81° | 80km/h | 15555m | 2.5m/s | 0°C | 0% | 0hPa | 0V | 00:00:00 | 00:00:00 | 00:00:00 | |
| PETON7-10 | 2026-09-01 00:17:46 | 46.09207 | 15.30978 | 82° | 82km/h | 15480m | 5.6m/s | 0°C | 0% | 0hPa | 0V | 00:00:00 | 00:00:00 | 00:00:00 | |
| 9A1FER-10 | 2026-09-01 00:17:45 | 46.09203 | 15.30951 | 76° | 84km/h | 15474m | 6.5m/s | 0°C | 0% | 0hPa | 0V | 00:00:00 | 00:00:00 | 00:00:00 | |
| 9A1FER-3 | 2026-09-01 00:17:43 | 46.09190 | 15.30892 | 75° | 84km/h | 15463m | 3.7m/s | 0°C | 0% | 0hPa | 0V | 00:00:00 | 00:00:00 | 00:00:00 | |
| 9A1FER-10 | 2026-09-01 00:17:30 | 46.09120 | 15.30516 | 73° | 82km/h | 15395m | 4.7m/s | 0°C | 0% | 0hPa | 0V | 00:00:00 | 00:00:00 | 00:00:00 | |
| PETON7-10 | 2026-09-01 00:17:29 | 46.09113 | 15.30487 | 72° | 84km/h | 15390m | 4.3m/s | 0°C | 0% | 0hPa | 0V | 00:00:00 | 00:00:00 | 00:00:00 | |
| 9A1FER-3 | 2026-09-01 00:17:28 | 46.09107 | 15.30456 | 76° | 84km/h | 15386m | 5.1m/s | 0°C | 0% | 0hPa | 0V | 00:00:00 | 00:00:00 | 00:00:00 | |
| 9A1FER-10 | 2026-09-01 00:17:15 | 46.09040 | 15.30077 | 76° | 86km/h | 15320m | 6.7m/s | 0°C | 0% | 0hPa | 0V | 00:00:00 | 00:00:00 | 00:00:00 | |
| PETON7-10 | 2026-09-01 00:17:14 | 46.09036 | 15.30047 | 79° | 86km/h | 15314m | 4.2m/s | 0°C | 0% | 0hPa | 0V | 00:00:00 | 00:00:00 | 00:00:00 | |
| 9A1FER-3 | 2026-09-01 00:17:13 | 46.09032 | 15.30017 | 78° | 88km/h | 15309m | 6.9m/s | 0°C | 0% | 0hPa | 0V | 00:00:00 | 00:00:00 | 00:00:00 | |
| HA6NAB-11 | 2026-09-01 00:17:09 | 46.09014 | 15.29896 | 79° | 84km/h | 15290m | 6.7m/s | 0°C | 0% | 0hPa | 0V | 00:00:00 | 00:00:00 | 00:00:00 | |
| HA6NAB-11 | 2026-09-01 00:17:04 | 46.08987 | 15.29742 | 77° | 89km/h | 15264m | 4.7m/s | 0°C | 0% | 0hPa | 0V | 00:00:00 | 00:00:00 | 00:00:00 | |
| 9A1FER-10 | 2026-09-01 00:17:00 | 46.08972 | 15.29619 | 74° | 91km/h | 15247m | 6.2m/s | 0°C | 0% | 0hPa | 0V | 00:00:00 | 00:00:00 | 00:00:00 | |
| PETON7-10 | 2026-09-01 00:16:59 | 46.08966 | 15.29587 | 74° | 91km/h | 15241m | 5.1m/s | 0°C | 0% | 0hPa | 0V | 00:00:00 | 00:00:00 | 00:00:00 | |
| 9A1FER-3 | 2026-09-01 00:16:58 | 46.08960 | 15.29555 | 77° | 91km/h | 15235m | 5.6m/s | 0°C | 0% | 0hPa | 0V | 00:00:00 | 00:00:00 | 00:00:00 | |
| HA6NAB-11 | 2026-09-01 00:16:53 | 46.08941 | 15.29399 | 86° | 91km/h | 15213m | 4.1m/s | 0°C | 0% | 0hPa | 0V | 00:00:00 | 00:00:00 | 00:00:00 | |
| HA6NAB-11 | 2026-09-01 00:16:48 | 46.08920 | 15.29237 | 85° | 91km/h | 15190m | 5.6m/s | 0°C | 0% | 0hPa | 0V | 00:00:00 | 00:00:00 | 00:00:00 | |
| 9A1FER-10 | 2026-09-01 00:16:45 | 46.08910 | 15.29134 | 84° | 91km/h | 15176m | 4.9m/s | 0°C | 0% | 0hPa | 0V | 00:00:00 | 00:00:00 | 00:00:00 | |
| PETON7-10 | 2026-09-01 00:16:44 | 46.08907 | 15.29101 | 81° | 91km/h | 15172m | 4.4m/s | 0°C | 0% | 0hPa | 0V | 00:00:00 | 00:00:00 | 00:00:00 | |
| 9A1FER-3 | 2026-09-01 00:16:43 | 46.08903 | 15.29069 | 76° | 91km/h | 15167m | 5.1m/s | 0°C | 0% | 0hPa | 0V | 00:00:00 | 00:00:00 | 00:00:00 | |
| 9A1FER-10 | 2026-09-01 00:16:30 | 46.08859 | 15.28647 | 84° | 93km/h | 15106m | 3.5m/s | 0°C | 0% | 0hPa | 0V | 00:00:00 | 00:00:00 | 00:00:00 | |
| PETON7-10 | 2026-09-01 00:16:29 | 46.08856 | 15.28613 | 86° | 89km/h | 15102m | 6.7m/s | 0°C | 0% | 0hPa | 0V | 00:00:00 | 00:00:00 | 00:00:00 | |
| 9A1FER-3 | 2026-09-01 00:16:28 | 46.08855 | 15.28580 | 86° | 93km/h | 15098m | 2.8m/s | 0°C | 0% | 0hPa | 0V | 00:00:00 | 00:00:00 | 00:00:00 | |
| 9A1FER-10 | 2026-09-01 00:16:15 | 46.08812 | 15.28148 | 86° | 95km/h | 15042m | 3.6m/s | 0°C | 0% | 0hPa | 0V | 00:00:00 | 00:00:00 | 00:00:00 | |
| 9A1FER-3 | 2026-09-01 00:16:13 | 46.08808 | 15.28078 | 84° | 97km/h | 15034m | 3.7m/s | 0°C | 0% | 0hPa | 0V | 00:00:00 | 00:00:00 | 00:00:00 | |
| 9A1FER-10 | 2026-09-01 00:16:00 | 46.08766 | 15.27629 | 81° | 95km/h | 14977m | 4.0m/s | 0°C | 0% | 0hPa | 0V | 00:00:00 | 00:00:00 | 00:00:00 | |
| 9A1FER-3 | 2026-09-01 00:15:58 | 46.08760 | 15.27558 | 85° | 93km/h | 14968m | 4.0m/s | 0°C | 0% | 0hPa | 0V | 00:00:00 | 00:00:00 | 00:00:00 | |
| 9A1FER-10 | 2026-09-01 00:15:45 | 46.08721 | 15.27122 | 86° | 91km/h | 14911m | 3.6m/s | 0°C | 0% | 0hPa | 0V | 00:00:00 | 00:00:00 | 00:00:00 | |
| 9A1FER-3 | 2026-09-01 00:15:43 | 46.08715 | 15.27058 | 79° | 93km/h | 14903m | 3.8m/s | 0°C | 0% | 0hPa | 0V | 00:00:00 | 00:00:00 | 00:00:00 | |
| 9A1FER-10 | 2026-09-01 00:15:30 | 46.08684 | 15.26628 | 89° | 95km/h | 14847m | 5.3m/s | 0°C | 0% | 0hPa | 0V | 00:00:00 | 00:00:00 | 00:00:00 | |
| 9A1FER-3 | 2026-09-01 00:15:28 | 46.08680 | 15.26557 | 82° | 97km/h | 14839m | 4.6m/s | 0°C | 0% | 0hPa | 0V | 00:00:00 | 00:00:00 | 00:00:00 | |
| 9A1FER-10 | 2026-09-01 00:15:15 | 46.08650 | 15.26107 | 89° | 95km/h | 14785m | 2.3m/s | 0°C | 0% | 0hPa | 0V | 00:00:00 | 00:00:00 | 00:00:00 | |
| 9A1FER-3 | 2026-09-01 00:15:12 | 46.08647 | 15.26001 | 83° | 95km/h | 14771m | 6.3m/s | 0°C | 0% | 0hPa | 0V | 00:00:00 | 00:00:00 | 00:00:00 | |
| 9A1FER-10 | 2026-09-01 00:15:00 | 46.08621 | 15.25597 | 89° | 93km/h | 14718m | 4.4m/s | 0°C | 0% | 0hPa | 0V | 00:00:00 | 00:00:00 | 00:00:00 | |
| 9A1FER-3 | 2026-09-01 00:14:57 | 46.08617 | 15.25486 | 85° | 91km/h | 14704m | 5.6m/s | 0°C | 0% | 0hPa | 0V | 00:00:00 | 00:00:00 | 00:00:00 | |
| 9A1FER-10 | 2026-09-01 00:14:45 | 46.08592 | 15.25090 | 87° | 93km/h | 14652m | 4.7m/s | 0°C | 0% | 0hPa | 0V | 00:00:00 | 00:00:00 | 00:00:00 | |
| 9A1FER-3 | 2026-09-01 00:14:42 | 46.08586 | 15.24989 | 86° | 91km/h | 14641m | 4.2m/s | 0°C | 0% | 0hPa | 0V | 00:00:00 | 00:00:00 | 00:00:00 | |
| 9A1FER-10 | 2026-09-01 00:14:30 | 46.08566 | 15.24587 | 93° | 91km/h | 14583m | 6.3m/s | 0°C | 0% | 0hPa | 0V | 00:00:00 | 00:00:00 | 00:00:00 | |
| 9A1FER-3 | 2026-09-01 00:14:27 | 46.08570 | 15.24489 | 86° | 91km/h | 14570m | 4.3m/s | 0°C | 0% | 0hPa | 0V | 00:00:00 | 00:00:00 | 00:00:00 | |
| 9A1FER-10 | 2026-09-01 00:14:15 | 46.08558 | 15.24087 | 89° | 93km/h | 14516m | 3.7m/s | 0°C | 0% | 0hPa | 0V | 00:00:00 | 00:00:00 | 00:00:00 | |
| 9A1FER-3 | 2026-09-01 00:14:12 | 46.08553 | 15.23986 | 91° | 93km/h | 14503m | 6.8m/s | 0°C | 0% | 0hPa | 0V | 00:00:00 | 00:00:00 | 00:00:00 | |
| 9A1FER-10 | 2026-09-01 00:14:00 | 46.08546 | 15.23581 | 87° | 95km/h | 14452m | 4.6m/s | 0°C | 0% | 0hPa | 0V | 00:00:00 | 00:00:00 | 00:00:00 | |
| 9A1FER-3 | 2026-09-01 00:13:56 | 46.08545 | 15.23443 | 84° | 95km/h | 14434m | 5.3m/s | 0°C | 0% | 0hPa | 0V | 00:00:00 | 00:00:00 | 00:00:00 | |
| 9A1FER-10 | 2026-09-01 00:13:45 | 46.08521 | 15.23066 | 83° | 95km/h | 14383m | 4.9m/s | 0°C | 0% | 0hPa | 0V | 00:00:00 | 00:00:00 | 00:00:00 | |
| 9A1FER-3 | 2026-09-01 00:13:41 | 46.08513 | 15.22931 | 85° | 97km/h | 14366m | 3.2m/s | 0°C | 0% | 0hPa | 0V | 00:00:00 | 00:00:00 | 00:00:00 | |
| 9A1FER-10 | 2026-09-01 00:13:30 | 46.08489 | 15.22547 | 87° | 100km/h | 14316m | 4.9m/s | 0°C | 0% | 0hPa | 0V | 00:00:00 | 00:00:00 | 00:00:00 | |
| 9A1FER-3 | 2026-09-01 00:13:26 | 46.08473 | 15.22403 | 85° | 102km/h | 14297m | 5.6m/s | 0°C | 0% | 0hPa | 0V | 00:00:00 | 00:00:00 | 00:00:00 | |
| 9A1FER-10 | 2026-09-01 00:13:15 | 46.08444 | 15.22003 | 88° | 104km/h | 14242m | 6.0m/s | 0°C | 0% | 0hPa | 0V | 00:00:00 | 00:00:00 | 00:00:00 | |
| 9A1FER-3 | 2026-09-01 00:13:11 | 46.08430 | 15.21851 | 78° | 104km/h | 14223m | 4.4m/s | 0°C | 0% | 0hPa | 0V | 00:00:00 | 00:00:00 | 00:00:00 | |
| 9A1FER-10 | 2026-09-01 00:13:00 | 46.08392 | 15.21445 | 84° | 104km/h | 14169m | 5.3m/s | 0°C | 0% | 0hPa | 0V | 00:00:00 | 00:00:00 | 00:00:00 | |
| 9A1FER-3 | 2026-09-01 00:12:56 | 46.08377 | 15.21297 | 79° | 106km/h | 14152m | 3.9m/s | 0°C | 0% | 0hPa | 0V | 00:00:00 | 00:00:00 | 00:00:00 | |
| 9A1FER-10 | 2026-09-01 00:12:45 | 46.08329 | 15.20885 | 81° | 104km/h | 14099m | 4.8m/s | 0°C | 0% | 0hPa | 0V | 00:00:00 | 00:00:00 | 00:00:00 | |
| 9A1FER-3 | 2026-09-01 00:12:41 | 46.08313 | 15.20734 | 83° | 104km/h | 14079m | 6.6m/s | 0°C | 0% | 0hPa | 0V | 00:00:00 | 00:00:00 | 00:00:00 | |
| 9A1FER-10 | 2026-09-01 00:12:30 | 46.08270 | 15.20319 | 82° | 106km/h | 14022m | 5.4m/s | 0°C | 0% | 0hPa | 0V | 00:00:00 | 00:00:00 | 00:00:00 | |
| 9A1FER-10 | 2026-09-01 00:12:15 | 46.08207 | 15.19747 | 83° | 111km/h | 13947m | 4.6m/s | 0°C | 0% | 0hPa | 0V | 00:00:00 | 00:00:00 | 00:00:00 | |
| 9A1FER-3 | 2026-09-01 00:12:11 | 46.08190 | 15.19586 | 82° | 111km/h | 13925m | 4.4m/s | 0°C | 0% | 0hPa | 0V | 00:00:00 | 00:00:00 | 00:00:00 | |
| 9A1FER-10 | 2026-09-01 00:12:00 | 46.08143 | 15.19150 | 84° | 115km/h | 13865m | 5.5m/s | 0°C | 0% | 0hPa | 0V | 00:00:00 | 00:00:00 | 00:00:00 | |
| 9A1FER-3 | 2026-09-01 00:11:56 | 46.08128 | 15.18979 | 83° | 113km/h | 13845m | 4.7m/s | 0°C | 0% | 0hPa | 0V | 00:00:00 | 00:00:00 | 00:00:00 | |
| 9A1FER-10 | 2026-09-01 00:11:45 | 46.08083 | 15.18532 | 83° | 117km/h | 13789m | 5.0m/s | 0°C | 0% | 0hPa | 0V | 00:00:00 | 00:00:00 | 00:00:00 | |
| 9A1FER-3 | 2026-09-01 00:11:41 | 46.08066 | 15.18368 | 81° | 115km/h | 13770m | 4.7m/s | 0°C | 0% | 0hPa | 0V | 00:00:00 | 00:00:00 | 00:00:00 | |
| 9A1FER-10 | 2026-09-01 00:11:30 | 46.08010 | 15.17904 | 78° | 119km/h | 13715m | 4.0m/s | 0°C | 0% | 0hPa | 0V | 00:00:00 | 00:00:00 | 00:00:00 | |
| 9A1FER-3 | 2026-09-01 00:11:26 | 46.07992 | 15.17743 | 82° | 119km/h | 13694m | 6.6m/s | 0°C | 0% | 0hPa | 0V | 00:00:00 | 00:00:00 | 00:00:00 | |
| 9A1FER-10 | 2026-09-01 00:11:15 | 46.07932 | 15.17269 | 83° | 119km/h | 13639m | 5.9m/s | 0°C | 0% | 0hPa | 0V | 00:00:00 | 00:00:00 | 00:00:00 | |
| 9A1FER-3 | 2026-09-01 00:11:11 | 46.07907 | 15.17108 | 75° | 122km/h | 13620m | 4.7m/s | 0°C | 0% | 0hPa | 0V | 00:00:00 | 00:00:00 | 00:00:00 | |
| 9A1FER-10 | 2026-09-01 00:11:00 | 46.07855 | 15.16630 | 85° | 126km/h | 13568m | 7.1m/s | 0°C | 0% | 0hPa | 0V | 00:00:00 | 00:00:00 | 00:00:00 | |
| 9A1FER-3 | 2026-09-01 00:10:56 | 46.07834 | 15.16452 | 81° | 124km/h | 13548m | 3.5m/s | 0°C | 0% | 0hPa | 0V | 00:00:00 | 00:00:00 | 00:00:00 | |
| 9A1FER-10 | 2026-09-01 00:10:45 | 46.07771 | 15.15957 | 82° | 128km/h | 13495m | 7.0m/s | 0°C | 0% | 0hPa | 0V | 00:00:00 | 00:00:00 | 00:00:00 | |
| 9A1FER-3 | 2026-09-01 00:10:41 | 46.07746 | 15.15782 | 77° | 128km/h | 13475m | 6.1m/s | 0°C | 0% | 0hPa | 0V | 00:00:00 | 00:00:00 | 00:00:00 | |
| 9A1FER-10 | 2026-09-01 00:10:30 | 46.07696 | 15.15268 | 83° | 131km/h | 13427m | 3.4m/s | 0°C | 0% | 0hPa | 0V | 00:00:00 | 00:00:00 | 00:00:00 | |
| 9A1FER-3 | 2026-09-01 00:10:26 | 46.07683 | 15.15083 | 89° | 133km/h | 13408m | 6.2m/s | 0°C | 0% | 0hPa | 0V | 00:00:00 | 00:00:00 | 00:00:00 | |
| 9A1FER-10 | 2026-09-01 00:10:15 | 46.07642 | 15.14553 | 83° | 141km/h | 13347m | 4.9m/s | 0°C | 0% | 0hPa | 0V | 00:00:00 | 00:00:00 | 00:00:00 | |
| 9A1FER-3 | 2026-09-01 00:10:11 | 46.07631 | 15.14354 | 86° | 141km/h | 13329m | 5.2m/s | 0°C | 0% | 0hPa | 0V | 00:00:00 | 00:00:00 | 00:00:00 | |
| 9A1FER-10 | 2026-09-01 00:10:00 | 46.07612 | 15.13791 | 88° | 144km/h | 13275m | 5.7m/s | 0°C | 0% | 0hPa | 0V | 00:00:00 | 00:00:00 | 00:00:00 | |
| 9A1FER-3 | 2026-09-01 00:09:56 | 46.07602 | 15.13588 | 89° | 146km/h | 13253m | 7.6m/s | 0°C | 0% | 0hPa | 0V | 00:00:00 | 00:00:00 | 00:00:00 | |
| 9A1FER-10 | 2026-09-01 00:09:45 | 46.07579 | 15.13004 | 87° | 151km/h | 13204m | 5.0m/s | 0°C | 0% | 0hPa | 0V | 00:00:00 | 00:00:00 | 00:00:00 | |
| 9A1FER-3 | 2026-09-01 00:09:41 | 46.07572 | 15.12788 | 89° | 153km/h | 13185m | 2.6m/s | 0°C | 0% | 0hPa | 0V | 00:00:00 | 00:00:00 | 00:00:00 | |
| 9A1FER-10 | 2026-09-01 00:09:30 | 46.07549 | 15.12179 | 87° | 148km/h | 13141m | 5.7m/s | 0°C | 0% | 0hPa | 0V | 00:00:00 | 00:00:00 | 00:00:00 | |
| 9A1FER-3 | 2026-09-01 00:09:26 | 46.07538 | 15.11969 | 87° | 150km/h | 13120m | 4.9m/s | 0°C | 0% | 0hPa | 0V | 00:00:00 | 00:00:00 | 00:00:00 | |
| 9A1FER-10 | 2026-09-01 00:09:14 | 46.07503 | 15.11327 | 87° | 153km/h | 13068m | 6.6m/s | 0°C | 0% | 0hPa | 0V | 00:00:00 | 00:00:00 | 00:00:00 | |
| 9A1FER-3 | 2026-09-01 00:09:11 | 46.07495 | 15.11161 | 89° | 153km/h | 13055m | 5.2m/s | 0°C | 0% | 0hPa | 0V | 00:00:00 | 00:00:00 | 00:00:00 | |
| 9A1FER-10 | 2026-09-01 00:08:59 | 46.07463 | 15.10495 | 88° | 155km/h | 13002m | 4.5m/s | 0°C | 0% | 0hPa | 0V | 00:00:00 | 00:00:00 | 00:00:00 | |
| 9A1FER-3 | 2026-09-01 00:08:56 | 46.07456 | 15.10326 | 87° | 157km/h | 12991m | 5.1m/s | 0°C | 0% | 0hPa | 0V | 00:00:00 | 00:00:00 | 00:00:00 | |
| 9A1FER-10 | 2026-09-01 00:08:44 | 46.07435 | 15.09646 | 89° | 155km/h | 12937m | 6.7m/s | 0°C | 0% | 0hPa | 0V | 00:00:00 | 00:00:00 | 00:00:00 | |
| 9A1FER-3 | 2026-09-01 00:08:40 | 46.07431 | 15.09418 | 88° | 157km/h | 12919m | 6.3m/s | 0°C | 0% | 0hPa | 0V | 00:00:00 | 00:00:00 | 00:00:00 | |
| 9A1FER-10 | 2026-09-01 00:08:29 | 46.07411 | 15.08795 | 85° | 161km/h | 12875m | 2.3m/s | 0°C | 0% | 0hPa | 0V | 00:00:00 | 00:00:00 | 00:00:00 | |
| 9A1FER-3 | 2026-09-01 00:08:23 | 46.07398 | 15.08446 | 86° | 161km/h | 12851m | 6.9m/s | 0°C | 0% | 0hPa | 0V | 00:00:00 | 00:00:00 | 00:00:00 | |
| 9A1FER-10 | 2026-09-01 00:08:15 | 46.07377 | 15.07925 | 86° | 162km/h | 12816m | 7.9m/s | 0°C | 0% | 0hPa | 0V | 00:00:00 | 00:00:00 | 00:00:00 | |
| 9A1FER-3 | 2026-09-01 00:08:08 | 46.07360 | 15.07576 | 87° | 166km/h | 12789m | 4.7m/s | 0°C | 0% | 0hPa | 0V | 00:00:00 | 00:00:00 | 00:00:00 | |
| 9A1FER-10 | 2026-09-01 00:07:59 | 46.07337 | 15.07045 | 86° | 166km/h | 12753m | 6.1m/s | 0°C | 0% | 0hPa | 0V | 00:00:00 | 00:00:00 | 00:00:00 | |
| 9A1FER-3 | 2026-09-01 00:07:52 | 46.07312 | 15.06622 | 85° | 166km/h | 12726m | 5.3m/s | 0°C | 0% | 0hPa | 0V | 00:00:00 | 00:00:00 | 00:00:00 | |
| 9A1FER-10 | 2026-09-01 00:07:44 | 46.07284 | 15.06140 | 83° | 166km/h | 12696m | 2.4m/s | 0°C | 0% | 0hPa | 0V | 00:00:00 | 00:00:00 | 00:00:00 | |
| OE3JTB-15 | 2026-09-01 00:07:39 | 46.07267 | 15.05842 | 88° | 164km/h | 12675m | 5.4m/s | 0°C | 0% | 0hPa | 0V | 00:00:00 | 00:00:00 | 00:00:00 | |
| 9A1FER-3 | 2026-09-01 00:07:37 | 46.07262 | 15.05722 | 84° | 164km/h | 12669m | 5.9m/s | 0°C | 0% | 0hPa | 0V | 00:00:00 | 00:00:00 | 00:00:00 | |
| 9A1FER-10 | 2026-09-01 00:07:29 | 46.07229 | 15.05242 | 88° | 166km/h | 12637m | 4.9m/s | 0°C | 0% | 0hPa | 0V | 00:00:00 | 00:00:00 | 00:00:00 | |
| 9A1FER-3 | 2026-09-01 00:07:19 | 46.07191 | 15.04645 | 85° | 168km/h | 12592m | 4.3m/s | 0°C | 0% | 0hPa | 0V | 00:00:00 | 00:00:00 | 00:00:00 | |
| 9A1FER-10 | 2026-09-01 00:07:14 | 46.07170 | 15.04342 | 85° | 164km/h | 12574m | 4.1m/s | 0°C | 0% | 0hPa | 0V | 00:00:00 | 00:00:00 | 00:00:00 | |
| 9A1FER-3 | 2026-09-01 00:07:04 | 46.07132 | 15.03748 | 85° | 164km/h | 12529m | 5.6m/s | 0°C | 0% | 0hPa | 0V | 00:00:00 | 00:00:00 | 00:00:00 | |
| 9A1FER-10 | 2026-09-01 00:06:59 | 46.07110 | 15.03447 | 82° | 162km/h | 12508m | 3.8m/s | 0°C | 0% | 0hPa | 0V | 00:00:00 | 00:00:00 | 00:00:00 | |
| 9A1FER-3 | 2026-09-01 00:06:48 | 46.07055 | 15.02803 | 86° | 161km/h | 12464m | 7.5m/s | 0°C | 0% | 0hPa | 0V | 00:00:00 | 00:00:00 | 00:00:00 | |
| 9A1FER-10 | 2026-09-01 00:06:44 | 46.07035 | 15.02568 | 81° | 159km/h | 12443m | 4.3m/s | 0°C | 0% | 0hPa | 0V | 00:00:00 | 00:00:00 | 00:00:00 | |
| 9A1FER-3 | 2026-09-01 00:06:35 | 46.06967 | 15.01940 | 84° | 159km/h | 12394m | 6.1m/s | 0°C | 0% | 0hPa | 0V | 00:00:00 | 00:00:00 | 00:00:00 | |
| 9A1FER-10 | 2026-09-01 00:06:29 | 46.06945 | 15.01710 | 80° | 159km/h | 12378m | 7.1m/s | 0°C | 0% | 0hPa | 0V | 00:00:00 | 00:00:00 | 00:00:00 | |
| 9A1FER-3 | 2026-09-01 00:06:18 | 46.06886 | 15.01086 | 85° | 157km/h | 12331m | 4.1m/s | 0°C | 0% | 0hPa | 0V | 00:00:00 | 00:00:00 | 00:00:00 | |
| 9A1FER-10 | 2026-09-01 00:06:14 | 46.06863 | 15.00851 | 86° | 157km/h | 12312m | 3.2m/s | 0°C | 0% | 0hPa | 0V | 00:00:00 | 00:00:00 | 00:00:00 | |
| 9A1FER-3 | 2026-09-01 00:06:03 | 46.06812 | 15.00233 | 84° | 161km/h | 12260m | 4.0m/s | 0°C | 0% | 0hPa | 0V | 00:00:00 | 00:00:00 | 00:00:00 | |
| 9A1FER-10 | 2026-09-01 00:05:59 | 46.06795 | 14.99998 | 85° | 161km/h | 12244m | 5.1m/s | 0°C | 0% | 0hPa | 0V | 00:00:00 | 00:00:00 | 00:00:00 | |
| 9A1FER-3 | 2026-09-01 00:05:48 | 46.06748 | 14.99365 | 85° | 161km/h | 12196m | 2.6m/s | 0°C | 0% | 0hPa | 0V | 00:00:00 | 00:00:00 | 00:00:00 | |
| 9A1FER-10 | 2026-09-01 00:05:45 | 46.06726 | 14.99132 | 83° | 161km/h | 12178m | 3.7m/s | 0°C | 0% | 0hPa | 0V | 00:00:00 | 00:00:00 | 00:00:00 | |
| 9A1FER-3 | 2026-09-01 00:05:34 | 46.06667 | 14.98496 | 82° | 161km/h | 12133m | 3.7m/s | 0°C | 0% | 0hPa | 0V | 00:00:00 | 00:00:00 | 00:00:00 | |
| 9A1FER-10 | 2026-09-01 00:05:29 | 46.06651 | 14.98267 | 88° | 161km/h | 12116m | 5.2m/s | 0°C | 0% | 0hPa | 0V | 00:00:00 | 00:00:00 | 00:00:00 | |
| 9A1FER-3 | 2026-09-01 00:05:20 | 46.06614 | 14.97626 | 88° | 162km/h | 12066m | 4.1m/s | 0°C | 0% | 0hPa | 0V | 00:00:00 | 00:00:00 | 00:00:00 | |
| 9A1FER-10 | 2026-09-01 00:05:14 | 46.06600 | 14.97392 | 90° | 164km/h | 12047m | 6.9m/s | 0°C | 0% | 0hPa | 0V | 00:00:00 | 00:00:00 | 00:00:00 | |
| 9A1FER-10 | 2026-09-01 00:05:01 | 46.06566 | 14.96499 | 84° | 164km/h | 11987m | 5.0m/s | 0°C | 0% | 0hPa | 0V | 00:00:00 | 00:00:00 | 00:00:00 | |
| 9A1FER-10 | 2026-09-01 00:04:47 | 46.06541 | 14.95608 | 88° | 162km/h | 11920m | 3.2m/s | 0°C | 0% | 0hPa | 0V | 00:00:00 | 00:00:00 | 00:00:00 | |
| 9A1FER-3 | 2026-09-01 00:04:32 | 46.06523 | 14.94895 | 87° | 162km/h | 11874m | 5.6m/s | 0°C | 0% | 0hPa | 0V | 00:00:00 | 00:00:00 | 00:00:00 | |
| 9A1FER-10 | 2026-09-01 00:04:31 | 46.06520 | 14.94716 | 89° | 162km/h | 11863m | 3.7m/s | 0°C | 0% | 0hPa | 0V | 00:00:00 | 00:00:00 | 00:00:00 | |
| 9A1FER-3 | 2026-09-01 00:04:17 | 46.06508 | 14.94003 | 86° | 159km/h | 11811m | 4.6m/s | 0°C | 0% | 0hPa | 0V | 00:00:00 | 00:00:00 | 00:00:00 | |
| 9A1FER-10 | 2026-09-01 00:04:14 | 46.06502 | 14.93824 | 90° | 161km/h | 11798m | 5.1m/s | 0°C | 0% | 0hPa | 0V | 00:00:00 | 00:00:00 | 00:00:00 | |
| 9A1FER-3 | 2026-09-01 00:04:02 | 46.06499 | 14.93134 | 90° | 157km/h | 11748m | 3.2m/s | 0°C | 0% | 0hPa | 0V | 00:00:00 | 00:00:00 | 00:00:00 | |
| 9A1FER-10 | 2026-09-01 00:03:53 | 46.06492 | 14.92544 | 87° | 159km/h | 11707m | 3.2m/s | 0°C | 0% | 0hPa | 0V | 00:00:00 | 00:00:00 | 00:00:00 | |
| 9A1FER-3 | 2026-09-01 00:03:48 | 46.06489 | 14.92143 | 88° | 161km/h | 11679m | 4.5m/s | 0°C | 0% | 0hPa | 0V | 00:00:00 | 00:00:00 | 00:00:00 | |
| 9A1FER-3 | 2026-09-01 00:03:40 | 46.06484 | 14.91273 | 90° | 155km/h | 11616m | 5.3m/s | 0°C | 0% | 0hPa | 0V | 00:00:00 | 00:00:00 | 00:00:00 | |
| 9A1FER-10 | 2026-09-01 00:03:36 | 46.06482 | 14.90814 | 91° | 150km/h | 11578m | 5.3m/s | 0°C | 0% | 0hPa | 0V | 00:00:00 | 00:00:00 | 00:00:00 | |
| 9A1FER-3 | 2026-09-01 00:03:33 | 46.06481 | 14.90425 | 94° | 150km/h | 11545m | 3.2m/s | 0°C | 0% | 0hPa | 0V | 00:00:00 | 00:00:00 | 00:00:00 | |
| OE3JTB-15 | 2026-09-01 00:03:27 | 46.06478 | 14.90031 | 93° | 139km/h | 11514m | 3.8m/s | 0°C | 0% | 0hPa | 0V | 00:00:00 | 00:00:00 | 00:00:00 | |
| 9A1FER-10 | 2026-09-01 00:03:19 | 46.06477 | 14.89552 | 86° | 150km/h | 11475m | 3.4m/s | 0°C | 0% | 0hPa | 0V | 00:00:00 | 00:00:00 | 00:00:00 | |
| 9A1FER-10 | 2026-09-01 00:03:01 | 46.06461 | 14.88673 | 84° | 124km/h | 11387m | 6.4m/s | 0°C | 0% | 0hPa | 0V | 00:00:00 | 00:00:00 | 00:00:00 | |
| 9A1FER-3 | 2026-09-01 00:02:41 | 46.06463 | 14.87956 | 90° | 119km/h | 11298m | 5.6m/s | 0°C | 0% | 0hPa | 0V | 00:00:00 | 00:00:00 | 00:00:00 | |
| 9A1FER-10 | 2026-09-01 00:02:21 | 46.06449 | 14.87432 | 88° | 115km/h | 11240m | 4.5m/s | 0°C | 0% | 0hPa | 0V | 00:00:00 | 00:00:00 | 00:00:00 | |
| 9A1FER-3 | 2026-09-01 00:02:16 | 46.06450 | 14.87307 | 93° | 115km/h | 11228m | 4.4m/s | 0°C | 0% | 0hPa | 0V | 00:00:00 | 00:00:00 | 00:00:00 | |
| 9A1FER-3 | 2026-09-01 00:01:59 | 46.06430 | 14.86057 | 90° | 111km/h | 11102m | 3.7m/s | 0°C | 0% | 0hPa | 0V | 00:00:00 | 00:00:00 | 00:00:00 | |
| 9A1FER-10 | 2026-09-01 00:01:41 | 46.06419 | 14.85580 | 97° | 102km/h | 11044m | 6.2m/s | 0°C | 0% | 0hPa | 0V | 00:00:00 | 00:00:00 | 00:00:00 | |
| 9A1FER-3 | 2026-09-01 00:01:38 | 46.06420 | 14.85449 | 89° | 106km/h | 11030m | 3.0m/s | 0°C | 0% | 0hPa | 0V | 00:00:00 | 00:00:00 | 00:00:00 | |
| 9A1FER-3 | 2026-09-01 00:01:17 | 46.06398 | 14.84883 | 84° | 100km/h | 10949m | 4.9m/s | 0°C | 0% | 0hPa | 0V | 00:00:00 | 00:00:00 | 00:00:00 | |
| 9A1FER-10 | 2026-09-01 00:00:53 | 46.06363 | 14.84035 | 87° | 91km/h | 10823m | 5.9m/s | 0°C | 0% | 0hPa | 0V | 00:00:00 | 00:00:00 | 00:00:00 | |
| 9A1FER-3 | 2026-09-01 00:00:44 | 46.06347 | 14.83798 | 92° | 89km/h | 10791m | 5.0m/s | 0°C | 0% | 0hPa | 0V | 00:00:00 | 00:00:00 | 00:00:00 | |
| 9A1FER-10 | 2026-09-01 00:00:31 | 46.06331 | 14.83398 | 76° | 82km/h | 10737m | -0.5m/s | 0°C | 0% | 0hPa | 0V | 00:00:00 | 00:00:00 | 00:00:00 | |
| 9A1FER-3 | 2026-09-01 00:00:29 | 46.06328 | 14.83317 | 111° | 86km/h | 10716m | 8.3m/s | 0°C | 0% | 0hPa | 0V | 00:00:00 | 00:00:00 | 00:00:00 | |
| 9A1FER-3 | 2026-09-01 00:00:18 | 46.06325 | 14.82858 | 76° | 78km/h | 10616m | 4.0m/s | 0°C | 0% | 0hPa | 0V | 00:00:00 | 00:00:00 | 00:00:00 | |
| 9A1FER-3 | 2026-08-31 23:59:56 | 46.06365 | 14.82401 | 90° | 80km/h | 10527m | 7.5m/s | 0°C | 0% | 0hPa | 0V | 00:00:00 | 00:00:00 | 00:00:00 | |
| 9A1FER-3 | 2026-08-31 23:59:41 | 46.06395 | 14.81977 | 98° | 75km/h | 10446m | 8.7m/s | 0°C | 0% | 0hPa | 0V | 00:00:00 | 00:00:00 | 00:00:00 | |
| 9A1FER-3 | 2026-08-31 23:59:26 | 46.06438 | 14.81578 | 94° | 75km/h | 10366m | 5.2m/s | 0°C | 0% | 0hPa | 0V | 00:00:00 | 00:00:00 | 00:00:00 | |
| 9A1FER-10 | 2026-08-31 23:58:18 | 46.06591 | 14.79694 | 87° | 77km/h | 10011m | 5.8m/s | 0°C | 0% | 0hPa | 0V | 00:00:00 | 00:00:00 | 00:00:00 | |
| 9A1FER-3 | 2026-08-31 23:58:12 | 46.06606 | 14.79522 | 80° | 75km/h | 9976m | 8.2m/s | 0°C | 0% | 0hPa | 0V | 00:00:00 | 00:00:00 | 00:00:00 | |
| 9A1FER-10 | 2026-08-31 23:58:03 | 46.06616 | 14.79275 | 89° | 75km/h | 9915m | 5.8m/s | 0°C | 0% | 0hPa | 0V | 00:00:00 | 00:00:00 | 00:00:00 | |
| 9A1FER-3 | 2026-08-31 23:57:57 | 46.06613 | 14.79123 | 85° | 75km/h | 9876m | 1.7m/s | 0°C | 0% | 0hPa | 0V | 00:00:00 | 00:00:00 | 00:00:00 | |
| 9A1FER-10 | 2026-08-31 23:57:47 | 46.06601 | 14.78855 | 92° | 73km/h | 9815m | 6.6m/s | 0°C | 0% | 0hPa | 0V | 00:00:00 | 00:00:00 | 00:00:00 | |
| 9A1FER-3 | 2026-08-31 23:57:41 | 46.06601 | 14.78695 | 91° | 78km/h | 9774m | 5.3m/s | 0°C | 0% | 0hPa | 0V | 00:00:00 | 00:00:00 | 00:00:00 | |
| 9A1FER-3 | 2026-08-31 23:57:26 | 46.06597 | 14.78272 | 105° | 86km/h | 9674m | 3.7m/s | 0°C | 0% | 0hPa | 0V | 00:00:00 | 00:00:00 | 00:00:00 | |
| 9A1FER-3 | 2026-08-31 23:57:11 | 46.06588 | 14.77825 | 93° | 88km/h | 9579m | 7.4m/s | 0°C | 0% | 0hPa | 0V | 00:00:00 | 00:00:00 | 00:00:00 | |
| 9A1FER-10 | 2026-08-31 23:56:48 | 46.06558 | 14.77141 | 80° | 86km/h | 9424m | 3.5m/s | 0°C | 0% | 0hPa | 0V | 00:00:00 | 00:00:00 | 00:00:00 | |
| 9A1FER-10 | 2026-08-31 23:56:33 | 46.06540 | 14.76662 | 92° | 88km/h | 9320m | 5.7m/s | 0°C | 0% | 0hPa | 0V | 00:00:00 | 00:00:00 | 00:00:00 | |
| 9A1FER-3 | 2026-08-31 23:56:29 | 46.06540 | 14.76541 | 83° | 88km/h | 9293m | 8.2m/s | 0°C | 0% | 0hPa | 0V | 00:00:00 | 00:00:00 | 00:00:00 | |
| 9A1FER-3 | 2026-08-31 23:56:14 | 46.06518 | 14.76060 | 96° | 84km/h | 9185m | 8.7m/s | 0°C | 0% | 0hPa | 0V | 00:00:00 | 00:00:00 | 00:00:00 | |
| 9A1FER-3 | 2026-08-31 23:55:59 | 46.06527 | 14.75612 | 81° | 86km/h | 9076m | 3.9m/s | 0°C | 0% | 0hPa | 0V | 00:00:00 | 00:00:00 | 00:00:00 | |
| 9A1FER-3 | 2026-08-31 23:55:44 | 46.06517 | 14.75155 | 90° | 95km/h | 8981m | 5.5m/s | 0°C | 0% | 0hPa | 0V | 00:00:00 | 00:00:00 | 00:00:00 | |
| 9A1FER-3 | 2026-08-31 23:55:27 | 46.06521 | 14.74594 | 91° | 91km/h | 8869m | 8.0m/s | 0°C | 0% | 0hPa | 0V | 00:00:00 | 00:00:00 | 00:00:00 | |
| OE3JTB-15 | 2026-08-31 23:54:38 | 46.06576 | 14.73035 | 102° | 84km/h | 8569m | 6.8m/s | 0°C | 0% | 0hPa | 0V | 00:00:00 | 00:00:00 | 00:00:00 | |
| OE3JTB-15 | 2026-08-31 23:52:48 | 46.06593 | 14.69583 | 75° | 86km/h | 7909m | 2.1m/s | 0°C | 0% | 0hPa | 0V | 00:00:00 | 00:00:00 | 00:00:00 | |
| 9A1FER-3 | 2026-08-31 23:52:26 | 46.06531 | 14.68895 | 87° | 89km/h | 7791m | 5.9m/s | 0°C | 0% | 0hPa | 0V | 00:00:00 | 00:00:00 | 00:00:00 | |
| 9A1FER-3 | 2026-08-31 23:52:06 | 46.06477 | 14.68235 | 69° | 99km/h | 7682m | 6.7m/s | 0°C | 0% | 0hPa | 0V | 00:00:00 | 00:00:00 | 00:00:00 |